Wetterdaten: Sonntag, 01.05.2022
Datum Zeit Temp. Aussen Temp. o. S. Temp +5cm Feuchte Auss Luftdruck Regen Sonnenschein Regendauer Solar Windben Empfang
01.05.2022 00:00 10,4 C 9,4 C 6,1 C 77 % 1024,8 hPa 0,0 l/m 0 min 0 min 0 W/m 3,2 km/h (1 Bft) 95,74 %
01.05.2022 00:02 10,4 C 9,4 C 6,1 C 77 % 1024,8 hPa 0,0 l/m 0 min 0 min 0 W/m 6,4 km/h (2 Bft) 95,00 %
01.05.2022 00:04 10,3 C 9,4 C 6,1 C 77 % 1024,8 hPa 0,0 l/m 0 min 0 min 0 W/m 9,7 km/h (2 Bft) 97,87 %
01.05.2022 00:07 10,3 C 9,4 C 6,1 C 77 % 1024,8 hPa 0,0 l/m 0 min 0 min 0 W/m 3,2 km/h (1 Bft) 98,59 %
01.05.2022 00:08 10,3 C 9,4 C 6,1 C 77 % 1024,8 hPa 0,0 l/m 0 min 0 min 0 W/m 3,2 km/h (1 Bft) 95,65 %
01.05.2022 00:10 10,3 C 9,4 C 6,1 C 78 % 1024,8 hPa 0,0 l/m 0 min 0 min 0 W/m 3,2 km/h (1 Bft) 100,00 %
01.05.2022 00:12 10,3 C 9,4 C 6,1 C 78 % 1024,8 hPa 0,0 l/m 0 min 0 min 0 W/m 6,4 km/h (2 Bft) 100,00 %
01.05.2022 00:14 10,3 C 9,4 C 6,1 C 77 % 1024,9 hPa 0,0 l/m 0 min 0 min 0 W/m 6,4 km/h (2 Bft) 100,00 %
01.05.2022 00:16 10,3 C 9,4 C 6,1 C 77 % 1024,9 hPa 0,0 l/m 0 min 0 min 0 W/m 3,2 km/h (1 Bft) 100,00 %
01.05.2022 00:18 10,3 C 9,4 C 6,1 C 78 % 1024,9 hPa 0,0 l/m 0 min 0 min 0 W/m 3,2 km/h (1 Bft) 100,00 %
01.05.2022 00:20 10,2 C 9,4 C 6,1 C 78 % 1024,9 hPa 0,0 l/m 0 min 0 min 0 W/m 3,2 km/h (1 Bft) 100,00 %
01.05.2022 00:22 10,2 C 9,4 C 6,1 C 78 % 1024,9 hPa 0,0 l/m 0 min 0 min 0 W/m 3,2 km/h (1 Bft) 100,00 %
01.05.2022 00:24 10,2 C 9,4 C 6,1 C 78 % 1024,8 hPa 0,0 l/m 0 min 0 min 0 W/m 6,4 km/h (2 Bft) 100,00 %
01.05.2022 00:26 10,2 C 9,4 C 6,1 C 78 % 1024,9 hPa 0,0 l/m 0 min 0 min 0 W/m 6,4 km/h (2 Bft) 100,00 %
01.05.2022 00:28 10,2 C 9,4 C 6,1 C 78 % 1024,9 hPa 0,0 l/m 0 min 0 min 0 W/m 12,9 km/h (3 Bft) 100,00 %
01.05.2022 00:30 10,2 C 9,4 C 6,1 C 78 % 1024,9 hPa 0,0 l/m 0 min 0 min 0 W/m 9,7 km/h (2 Bft) 100,00 %
01.05.2022 00:32 10,2 C 9,4 C 6,1 C 78 % 1024,9 hPa 0,0 l/m 0 min 0 min 0 W/m 6,4 km/h (2 Bft) 100,00 %
01.05.2022 00:34 10,2 C 9,4 C 6,1 C 78 % 1024,9 hPa 0,0 l/m 0 min 0 min 0 W/m 9,7 km/h (2 Bft) 100,00 %
01.05.2022 00:36 10,2 C 9,4 C 6,1 C 78 % 1024,8 hPa 0,0 l/m 0 min 0 min 0 W/m 9,7 km/h (2 Bft) 97,87 %
01.05.2022 00:38 10,2 C 9,4 C 6,1 C 78 % 1024,8 hPa 0,0 l/m 0 min 0 min 0 W/m 3,2 km/h (1 Bft) 97,87 %
01.05.2022 00:40 10,2 C 9,4 C 6,1 C 79 % 1024,8 hPa 0,0 l/m 0 min 0 min 0 W/m 3,2 km/h (1 Bft) 100,00 %
01.05.2022 00:42 10,2 C 9,4 C 6,1 C 79 % 1024,8 hPa 0,0 l/m 0 min 0 min 0 W/m 6,4 km/h (2 Bft) 97,87 %
01.05.2022 00:44 10,1 C 9,4 C 6,1 C 79 % 1024,8 hPa 0,0 l/m 0 min 0 min 0 W/m 3,2 km/h (1 Bft) 100,00 %
01.05.2022 00:46 10,1 C 9,4 C 6,1 C 79 % 1024,8 hPa 0,0 l/m 0 min 0 min 0 W/m 9,7 km/h (2 Bft) 97,87 %
01.05.2022 00:48 10,1 C 9,4 C 6,1 C 79 % 1024,8 hPa 0,0 l/m 0 min 0 min 0 W/m 6,4 km/h (2 Bft) 100,00 %
01.05.2022 00:50 10,1 C 9,4 C 6,1 C 79 % 1024,8 hPa 0,0 l/m 0 min 0 min 0 W/m 9,7 km/h (2 Bft) 100,00 %
01.05.2022 00:52 10,1 C 9,4 C 6,1 C 79 % 1024,8 hPa 0,0 l/m 0 min 0 min 0 W/m 3,2 km/h (1 Bft) 100,00 %
01.05.2022 00:54 10,1 C 9,4 C 6,1 C 79 % 1024,8 hPa 0,0 l/m 0 min 0 min 0 W/m 9,7 km/h (2 Bft) 97,87 %
01.05.2022 00:56 10,1 C 9,4 C 6,1 C 79 % 1024,8 hPa 0,0 l/m 0 min 0 min 0 W/m 12,9 km/h (3 Bft) 97,87 %
01.05.2022 00:58 10,1 C 9,4 C 6,1 C 78 % 1024,8 hPa 0,0 l/m 0 min 0 min 0 W/m 9,7 km/h (2 Bft) 97,87 %
01.05.2022 01:00 10,1 C 9,4 C 6,1 C 79 % 1024,8 hPa 0,0 l/m 0 min 0 min 0 W/m 6,4 km/h (2 Bft) 97,87 %
01.05.2022 01:02 10,1 C 9,4 C 6,1 C 79 % 1024,8 hPa 0,0 l/m 0 min 0 min 0 W/m 3,2 km/h (1 Bft) 95,74 %
01.05.2022 01:04 10,1 C 9,4 C 6,1 C 79 % 1024,8 hPa 0,0 l/m 0 min 0 min 0 W/m 6,4 km/h (2 Bft) 93,48 %
01.05.2022 01:06 10,1 C 9,4 C 6,1 C 79 % 1024,9 hPa 0,0 l/m 0 min 0 min 0 W/m 9,7 km/h (2 Bft) 95,74 %
01.05.2022 01:08 10,1 C 9,4 C 6,1 C 79 % 1024,9 hPa 0,0 l/m 0 min 0 min 0 W/m 3,2 km/h (1 Bft) 95,74 %
01.05.2022 01:10 10,1 C 9,4 C 6,1 C 79 % 1024,9 hPa 0,0 l/m 0 min 0 min 0 W/m 3,2 km/h (1 Bft) 95,74 %
01.05.2022 01:12 10,1 C 9,4 C 6,1 C 79 % 1024,8 hPa 0,0 l/m 0 min 0 min 0 W/m 0,0 km/h (0 Bft) 95,74 %
01.05.2022 01:14 10,1 C 9,4 C 6,1 C 79 % 1024,9 hPa 0,0 l/m 0 min 0 min 0 W/m 3,2 km/h (1 Bft) 97,87 %
01.05.2022 01:16 10,1 C 9,4 C 6,1 C 79 % 1024,8 hPa 0,0 l/m 0 min 0 min 0 W/m 3,2 km/h (1 Bft) 95,65 %
01.05.2022 01:18 10,1 C 9,4 C 5,6 C 79 % 1024,8 hPa 0,0 l/m 0 min 0 min 0 W/m 6,4 km/h (2 Bft) 93,62 %
01.05.2022 01:20 10,1 C 9,4 C 5,6 C 79 % 1024,8 hPa 0,0 l/m 0 min 0 min 0 W/m 6,4 km/h (2 Bft) 93,62 %
01.05.2022 01:22 10,0 C 9,4 C 5,6 C 79 % 1024,8 hPa 0,0 l/m 0 min 0 min 0 W/m 3,2 km/h (1 Bft) 95,74 %
01.05.2022 01:24 10,0 C 9,4 C 5,6 C 79 % 1024,7 hPa 0,0 l/m 0 min 0 min 0 W/m 6,4 km/h (2 Bft) 95,74 %
01.05.2022 01:26 10,0 C 9,4 C 5,6 C 79 % 1024,7 hPa 0,0 l/m 0 min 0 min 0 W/m 6,4 km/h (2 Bft) 95,74 %
01.05.2022 01:28 10,0 C 9,4 C 5,6 C 79 % 1024,7 hPa 0,0 l/m 0 min 0 min 0 W/m 6,4 km/h (2 Bft) 97,83 %
01.05.2022 01:30 10,0 C 9,4 C 5,6 C 79 % 1024,7 hPa 0,0 l/m 0 min 0 min 0 W/m 9,7 km/h (2 Bft) 97,87 %
01.05.2022 01:32 9,9 C 9,4 C 5,6 C 79 % 1024,7 hPa 0,0 l/m 0 min 0 min 0 W/m 12,9 km/h (3 Bft) 95,74 %
01.05.2022 01:34 9,9 C 9,4 C 5,6 C 79 % 1024,7 hPa 0,0 l/m 0 min 0 min 0 W/m 3,2 km/h (1 Bft) 95,74 %
01.05.2022 01:36 9,9 C 9,4 C 5,6 C 79 % 1024,7 hPa 0,0 l/m 0 min 0 min 0 W/m 12,9 km/h (3 Bft) 95,74 %
01.05.2022 01:38 9,9 C 9,4 C 5,6 C 79 % 1024,6 hPa 0,0 l/m 0 min 0 min 0 W/m 6,4 km/h (2 Bft) 95,74 %
01.05.2022 01:40 9,9 C 9,4 C 6,1 C 79 % 1024,7 hPa 0,0 l/m 0 min 0 min 0 W/m 9,7 km/h (2 Bft) 97,83 %
01.05.2022 01:42 9,9 C 9,4 C 6,1 C 79 % 1024,7 hPa 0,0 l/m 0 min 0 min 0 W/m 9,7 km/h (2 Bft) 97,87 %
01.05.2022 01:44 9,9 C 9,4 C 6,1 C 79 % 1024,7 hPa 0,0 l/m 0 min 0 min 0 W/m 9,7 km/h (2 Bft) 97,87 %
01.05.2022 01:46 9,9 C 9,4 C 6,1 C 79 % 1024,7 hPa 0,0 l/m 0 min 0 min 0 W/m 6,4 km/h (2 Bft) 95,74 %
01.05.2022 01:48 9,9 C 9,4 C 6,1 C 79 % 1024,6 hPa 0,0 l/m 0 min 0 min 0 W/m 3,2 km/h (1 Bft) 97,87 %
01.05.2022 01:50 9,9 C 9,4 C 6,1 C 79 % 1024,6 hPa 0,0 l/m 0 min 0 min 0 W/m 3,2 km/h (1 Bft) 97,87 %
01.05.2022 01:52 9,9 C 9,4 C 6,1 C 79 % 1024,6 hPa 0,0 l/m 0 min 0 min 0 W/m 6,4 km/h (2 Bft) 97,83 %
01.05.2022 01:54 9,9 C 9,4 C 6,1 C 79 % 1024,6 hPa 0,0 l/m 0 min 0 min 0 W/m 6,4 km/h (2 Bft) 95,74 %
01.05.2022 01:56 9,9 C 9,4 C 5,6 C 79 % 1024,6 hPa 0,0 l/m 0 min 0 min 0 W/m 6,4 km/h (2 Bft) 95,74 %
01.05.2022 01:58 9,9 C 9,4 C 5,6 C 79 % 1024,6 hPa 0,0 l/m 0 min 0 min 0 W/m 9,7 km/h (2 Bft) 95,74 %
01.05.2022 02:00 9,9 C 9,4 C 5,6 C 79 % 1024,6 hPa 0,0 l/m 0 min 0 min 0 W/m 6,4 km/h (2 Bft) 97,87 %
01.05.2022 02:02 9,9 C 9,4 C 5,6 C 79 % 1024,6 hPa 0,0 l/m 0 min 0 min 0 W/m 3,2 km/h (1 Bft) 97,87 %
01.05.2022 02:04 9,9 C 9,4 C 5,6 C 79 % 1024,6 hPa 0,0 l/m 0 min 0 min 0 W/m 3,2 km/h (1 Bft) 97,83 %
01.05.2022 02:06 9,9 C 9,4 C 5,6 C 79 % 1024,6 hPa 0,0 l/m 0 min 0 min 0 W/m 6,4 km/h (2 Bft) 97,87 %
01.05.2022 02:08 9,9 C 9,4 C 5,6 C 79 % 1024,6 hPa 0,0 l/m 0 min 0 min 0 W/m 9,7 km/h (2 Bft) 95,74 %
01.05.2022 02:10 9,9 C 9,4 C 5,6 C 78 % 1024,6 hPa 0,0 l/m 0 min 0 min 0 W/m 3,2 km/h (1 Bft) 97,87 %
01.05.2022 02:12 9,9 C 9,4 C 5,6 C 78 % 1024,6 hPa 0,0 l/m 0 min 0 min 0 W/m 6,4 km/h (2 Bft) 97,87 %
01.05.2022 02:14 9,9 C 9,4 C 5,6 C 79 % 1024,6 hPa 0,0 l/m 0 min 0 min 0 W/m 3,2 km/h (1 Bft) 95,65 %
01.05.2022 02:16 9,9 C 9,4 C 5,6 C 79 % 1024,6 hPa 0,0 l/m 0 min 0 min 0 W/m 6,4 km/h (2 Bft) 95,74 %
01.05.2022 02:18 9,9 C 9,4 C 5,6 C 79 % 1024,6 hPa 0,0 l/m 0 min 0 min 0 W/m 3,2 km/h (1 Bft) 97,87 %
01.05.2022 02:20 9,9 C 8,9 C 5,6 C 79 % 1024,6 hPa 0,0 l/m 0 min 0 min 0 W/m 9,7 km/h (2 Bft) 97,87 %
01.05.2022 02:22 9,9 C 8,9 C 5,6 C 79 % 1024,6 hPa 0,0 l/m 0 min 0 min 0 W/m 9,7 km/h (2 Bft) 97,87 %
01.05.2022 02:24 9,9 C 8,9 C 5,6 C 79 % 1024,6 hPa 0,0 l/m 0 min 0 min 0 W/m 6,4 km/h (2 Bft) 97,87 %
01.05.2022 02:26 9,9 C 9,4 C 5,6 C 80 % 1024,5 hPa 0,0 l/m 0 min 0 min 0 W/m 9,7 km/h (2 Bft) 97,83 %
01.05.2022 02:28 9,9 C 9,4 C 5,6 C 80 % 1024,5 hPa 0,0 l/m 0 min 0 min 0 W/m 3,2 km/h (1 Bft) 97,87 %
01.05.2022 02:30 9,9 C 8,9 C 5,6 C 80 % 1024,5 hPa 0,0 l/m 0 min 0 min 0 W/m 6,4 km/h (2 Bft) 93,62 %
01.05.2022 02:32 9,9 C 8,9 C 5,6 C 80 % 1024,5 hPa 0,0 l/m 0 min 0 min 0 W/m 6,4 km/h (2 Bft) 95,74 %
01.05.2022 02:34 9,9 C 8,9 C 5,6 C 80 % 1024,4 hPa 0,0 l/m 0 min 0 min 0 W/m 6,4 km/h (2 Bft) 97,87 %
01.05.2022 02:36 9,8 C 8,9 C 5,6 C 80 % 1024,5 hPa 0,0 l/m 0 min 0 min 0 W/m 6,4 km/h (2 Bft) 97,87 %
01.05.2022 02:38 9,8 C 8,9 C 5,6 C 80 % 1024,5 hPa 0,0 l/m 0 min 0 min 0 W/m 3,2 km/h (1 Bft) 97,83 %
01.05.2022 02:40 9,8 C 8,9 C 5,6 C 80 % 1024,5 hPa 0,0 l/m 0 min 0 min 0 W/m 6,4 km/h (2 Bft) 95,74 %
01.05.2022 02:42 9,8 C 8,9 C 5,6 C 80 % 1024,5 hPa 0,0 l/m 0 min 0 min 0 W/m 3,2 km/h (1 Bft) 97,87 %
01.05.2022 02:44 9,8 C 8,9 C 5,6 C 80 % 1024,5 hPa 0,0 l/m 0 min 0 min 0 W/m 6,4 km/h (2 Bft) 95,74 %
01.05.2022 02:46 9,8 C 8,9 C 5,6 C 80 % 1024,4 hPa 0,0 l/m 0 min 0 min 0 W/m 3,2 km/h (1 Bft) 97,87 %
01.05.2022 02:48 9,8 C 8,9 C 5,6 C 81 % 1024,5 hPa 0,0 l/m 0 min 0 min 0 W/m 6,4 km/h (2 Bft) 97,87 %
01.05.2022 02:50 9,7 C 8,9 C 5,6 C 81 % 1024,4 hPa 0,0 l/m 0 min 0 min 0 W/m 6,4 km/h (2 Bft) 95,65 %
01.05.2022 02:52 9,7 C 8,9 C 5,6 C 81 % 1024,4 hPa 0,0 l/m 0 min 0 min 0 W/m 3,2 km/h (1 Bft) 97,87 %
01.05.2022 02:54 9,7 C 8,9 C 5,6 C 81 % 1024,4 hPa 0,0 l/m 0 min 0 min 0 W/m 6,4 km/h (2 Bft) 97,87 %
01.05.2022 02:56 9,7 C 8,9 C 5,6 C 81 % 1024,4 hPa 0,0 l/m 0 min 0 min 0 W/m 6,4 km/h (2 Bft) 97,87 %
01.05.2022 02:58 9,7 C 8,9 C 5,6 C 81 % 1024,4 hPa 0,0 l/m 0 min 0 min 0 W/m 6,4 km/h (2 Bft) 97,87 %
01.05.2022 03:00 9,7 C 8,9 C 5,6 C 81 % 1024,3 hPa 0,0 l/m 0 min 0 min 0 W/m 6,4 km/h (2 Bft) 95,74 %
01.05.2022 03:02 9,7 C 8,9 C 5,6 C 81 % 1024,3 hPa 0,0 l/m 0 min 0 min 0 W/m 6,4 km/h (2 Bft) 97,83 %
01.05.2022 03:04 9,7 C 8,9 C 5,6 C 81 % 1024,3 hPa 0,0 l/m 0 min 0 min 0 W/m 9,7 km/h (2 Bft) 97,87 %
01.05.2022 03:06 9,6 C 8,9 C 5,6 C 81 % 1024,3 hPa 0,0 l/m 0 min 0 min 0 W/m 6,4 km/h (2 Bft) 97,87 %
01.05.2022 03:08 9,6 C 8,9 C 5,6 C 81 % 1024,3 hPa 0,0 l/m 0 min 0 min 0 W/m 6,4 km/h (2 Bft) 97,87 %
01.05.2022 03:10 9,6 C 8,9 C 5,0 C 81 % 1024,3 hPa 0,0 l/m 0 min 0 min 0 W/m 9,7 km/h (2 Bft) 97,87 %
01.05.2022 03:12 9,6 C 8,3 C 5,0 C 82 % 1024,3 hPa 0,0 l/m 0 min 0 min 0 W/m 9,7 km/h (2 Bft) 100,00 %
01.05.2022 03:14 9,5 C 8,3 C 5,0 C 82 % 1024,3 hPa 0,0 l/m 0 min 0 min 0 W/m 6,4 km/h (2 Bft) 97,83 %
01.05.2022 03:16 9,5 C 8,3 C 5,0 C 81 % 1024,3 hPa 0,0 l/m 0 min 0 min 0 W/m 6,4 km/h (2 Bft) 100,00 %
01.05.2022 03:18 9,4 C 8,3 C 5,0 C 82 % 1024,3 hPa 0,0 l/m 0 min 0 min 0 W/m 9,7 km/h (2 Bft) 100,00 %
01.05.2022 03:20 9,4 C 8,3 C 5,0 C 82 % 1024,3 hPa 0,0 l/m 0 min 0 min 0 W/m 9,7 km/h (2 Bft) 100,00 %
01.05.2022 03:22 9,4 C 8,9 C 5,0 C 82 % 1024,4 hPa 0,0 l/m 0 min 0 min 0 W/m 3,2 km/h (1 Bft) 95,74 %
01.05.2022 03:24 9,4 C 8,3 C 5,0 C 82 % 1024,4 hPa 0,0 l/m 0 min 0 min 0 W/m 6,4 km/h (2 Bft) 100,00 %
01.05.2022 03:26 9,4 C 8,3 C 5,0 C 82 % 1024,4 hPa 0,0 l/m 0 min 0 min 0 W/m 3,2 km/h (1 Bft) 100,00 %
01.05.2022 03:28 9,4 C 8,3 C 5,0 C 82 % 1024,4 hPa 0,0 l/m 0 min 0 min 0 W/m 3,2 km/h (1 Bft) 100,00 %
01.05.2022 03:30 9,4 C 8,3 C 5,0 C 82 % 1024,4 hPa 0,0 l/m 0 min 0 min 0 W/m 6,4 km/h (2 Bft) 100,00 %
01.05.2022 03:32 9,4 C 8,3 C 5,0 C 82 % 1024,4 hPa 0,0 l/m 0 min 0 min 0 W/m 6,4 km/h (2 Bft) 100,00 %
01.05.2022 03:34 9,4 C 8,3 C 5,0 C 82 % 1024,4 hPa 0,0 l/m 0 min 0 min 0 W/m 6,4 km/h (2 Bft) 100,00 %
01.05.2022 03:36 9,3 C 8,3 C 5,0 C 83 % 1024,4 hPa 0,0 l/m 0 min 0 min 0 W/m 9,7 km/h (2 Bft) 100,00 %
01.05.2022 03:38 9,3 C 8,3 C 5,0 C 83 % 1024,4 hPa 0,0 l/m 0 min 0 min 0 W/m 9,7 km/h (2 Bft) 97,83 %
01.05.2022 03:40 9,3 C 8,3 C 5,0 C 83 % 1024,5 hPa 0,0 l/m 0 min 0 min 0 W/m 3,2 km/h (1 Bft) 100,00 %
01.05.2022 03:42 9,3 C 8,3 C 5,0 C 83 % 1024,5 hPa 0,0 l/m 0 min 0 min 0 W/m 6,4 km/h (2 Bft) 100,00 %
01.05.2022 03:44 9,3 C 8,3 C 5,0 C 83 % 1024,5 hPa 0,0 l/m 0 min 0 min 0 W/m 6,4 km/h (2 Bft) 100,00 %
01.05.2022 03:46 9,3 C 8,3 C 5,0 C 83 % 1024,5 hPa 0,0 l/m 0 min 0 min 0 W/m 6,4 km/h (2 Bft) 100,00 %
01.05.2022 03:48 9,3 C 8,3 C 5,0 C 83 % 1024,5 hPa 0,0 l/m 0 min 0 min 0 W/m 6,4 km/h (2 Bft) 100,00 %
01.05.2022 03:50 9,3 C 8,3 C 5,0 C 83 % 1024,5 hPa 0,0 l/m 0 min 0 min 0 W/m 6,4 km/h (2 Bft) 100,00 %
01.05.2022 03:52 9,3 C 8,3 C 5,0 C 83 % 1024,4 hPa 0,0 l/m 0 min 0 min 0 W/m 3,2 km/h (1 Bft) 100,00 %
01.05.2022 03:54 9,3 C 8,3 C 5,0 C 83 % 1024,4 hPa 0,0 l/m 0 min 0 min 0 W/m 3,2 km/h (1 Bft) 100,00 %
01.05.2022 03:56 9,3 C 8,3 C 5,0 C 83 % 1024,4 hPa 0,0 l/m 0 min 0 min 0 W/m 9,7 km/h (2 Bft) 100,00 %
01.05.2022 03:58 9,2 C 8,3 C 5,0 C 83 % 1024,3 hPa 0,0 l/m 0 min 0 min 0 W/m 6,4 km/h (2 Bft) 100,00 %
01.05.2022 04:00 9,2 C 8,3 C 5,0 C 83 % 1024,3 hPa 0,0 l/m 0 min 0 min 0 W/m 6,4 km/h (2 Bft) 100,00 %
01.05.2022 04:02 9,2 C 8,3 C 5,0 C 83 % 1024,4 hPa 0,0 l/m 0 min 0 min 0 W/m 6,4 km/h (2 Bft) 88,24 %
01.05.2022 04:04 9,2 C 8,3 C 5,0 C 83 % 1024,4 hPa 0,0 l/m 0 min 0 min 0 W/m 3,2 km/h (1 Bft) 100,00 %
01.05.2022 04:06 9,2 C 8,3 C 5,0 C 83 % 1024,4 hPa 0,0 l/m 0 min 0 min 0 W/m 3,2 km/h (1 Bft) 97,87 %
01.05.2022 04:08 9,2 C 8,3 C 5,0 C 83 % 1024,4 hPa 0,0 l/m 0 min 0 min 0 W/m 0,0 km/h (0 Bft) 100,00 %
01.05.2022 04:10 9,2 C 8,3 C 5,0 C 83 % 1024,4 hPa 0,0 l/m 0 min 0 min 0 W/m 3,2 km/h (1 Bft) 100,00 %
01.05.2022 04:12 9,2 C 8,3 C 5,0 C 83 % 1024,3 hPa 0,0 l/m 0 min 0 min 0 W/m 0,0 km/h (0 Bft) 100,00 %
01.05.2022 04:14 9,2 C 8,3 C 5,0 C 84 % 1024,4 hPa 0,0 l/m 0 min 0 min 0 W/m 3,2 km/h (1 Bft) 100,00 %
01.05.2022 04:16 9,2 C 8,3 C 5,0 C 84 % 1024,3 hPa 0,0 l/m 0 min 0 min 0 W/m 0,0 km/h (0 Bft) 97,87 %
01.05.2022 04:18 9,2 C 8,3 C 5,0 C 84 % 1024,4 hPa 0,0 l/m 0 min 0 min 0 W/m 3,2 km/h (1 Bft) 97,87 %
01.05.2022 04:20 9,2 C 8,3 C 5,0 C 84 % 1024,3 hPa 0,0 l/m 0 min 0 min 0 W/m 3,2 km/h (1 Bft) 97,87 %
01.05.2022 04:22 9,2 C 8,3 C 5,0 C 84 % 1024,3 hPa 0,0 l/m 0 min 0 min 0 W/m 3,2 km/h (1 Bft) 95,74 %
01.05.2022 04:24 9,2 C 8,3 C 5,0 C 84 % 1024,3 hPa 0,0 l/m 0 min 0 min 0 W/m 3,2 km/h (1 Bft) 93,62 %
01.05.2022 04:26 9,2 C 8,3 C 5,0 C 84 % 1024,3 hPa 0,0 l/m 0 min 0 min 0 W/m 3,2 km/h (1 Bft) 95,65 %
01.05.2022 04:28 9,2 C 8,3 C 5,0 C 84 % 1024,2 hPa 0,0 l/m 0 min 0 min 0 W/m 3,2 km/h (1 Bft) 95,74 %
01.05.2022 04:30 9,2 C 8,3 C 5,0 C 84 % 1024,3 hPa 0,0 l/m 0 min 0 min 0 W/m 6,4 km/h (2 Bft) 95,74 %
01.05.2022 04:32 9,2 C 8,3 C 5,0 C 84 % 1024,2 hPa 0,0 l/m 0 min 0 min 0 W/m 3,2 km/h (1 Bft) 93,62 %
01.05.2022 04:34 9,2 C 8,3 C 5,0 C 84 % 1024,2 hPa 0,0 l/m 0 min 0 min 0 W/m 3,2 km/h (1 Bft) 95,74 %
01.05.2022 04:36 9,2 C 8,3 C 5,0 C 84 % 1024,2 hPa 0,0 l/m 0 min 0 min 0 W/m 3,2 km/h (1 Bft) 93,48 %
01.05.2022 04:38 9,2 C 8,3 C 5,0 C 84 % 1024,2 hPa 0,0 l/m 0 min 0 min 0 W/m 0,0 km/h (0 Bft) 93,62 %
01.05.2022 04:40 9,1 C 8,3 C 5,0 C 84 % 1024,2 hPa 0,0 l/m 0 min 0 min 0 W/m 3,2 km/h (1 Bft) 93,62 %
01.05.2022 04:42 9,1 C 8,3 C 5,0 C 84 % 1024,2 hPa 0,0 l/m 0 min 0 min 0 W/m 3,2 km/h (1 Bft) 93,62 %
01.05.2022 04:44 9,1 C 8,3 C 5,0 C 84 % 1024,2 hPa 0,0 l/m 0 min 0 min 0 W/m 3,2 km/h (1 Bft) 91,49 %
01.05.2022 04:46 9,1 C 8,3 C 5,0 C 84 % 1024,2 hPa 0,0 l/m 0 min 0 min 0 W/m 0,0 km/h (0 Bft) 91,49 %
01.05.2022 04:48 9,1 C 8,3 C 5,0 C 84 % 1024,2 hPa 0,0 l/m 0 min 0 min 0 W/m 3,2 km/h (1 Bft) 93,48 %
01.05.2022 04:50 9,1 C 8,3 C 5,0 C 84 % 1024,2 hPa 0,0 l/m 0 min 0 min 0 W/m 0,0 km/h (0 Bft) 91,49 %
01.05.2022 04:52 9,1 C 8,3 C 5,0 C 85 % 1024,2 hPa 0,0 l/m 0 min 0 min 0 W/m 3,2 km/h (1 Bft) 93,62 %
01.05.2022 04:54 9,1 C 8,3 C 5,0 C 85 % 1024,2 hPa 0,0 l/m 0 min 0 min 0 W/m 0,0 km/h (0 Bft) 93,62 %
01.05.2022 04:56 9,1 C 8,3 C 5,0 C 85 % 1024,2 hPa 0,0 l/m 0 min 0 min 0 W/m 3,2 km/h (1 Bft) 93,62 %
01.05.2022 04:58 9,1 C 8,3 C 5,0 C 85 % 1024,1 hPa 0,0 l/m 0 min 0 min 0 W/m 3,2 km/h (1 Bft) 95,74 %
01.05.2022 05:00 9,1 C 8,3 C 5,0 C 85 % 1024,1 hPa 0,0 l/m 0 min 0 min 0 W/m 3,2 km/h (1 Bft) 93,48 %
01.05.2022 05:02 9,1 C 7,8 C 5,0 C 85 % 1024,1 hPa 0,0 l/m 0 min 0 min 0 W/m 0,0 km/h (0 Bft) 97,87 %
01.05.2022 05:04 9,0 C 7,8 C 4,4 C 85 % 1024,0 hPa 0,0 l/m 0 min 0 min 0 W/m 3,2 km/h (1 Bft) 95,74 %
01.05.2022 05:06 9,0 C 7,8 C 4,4 C 85 % 1024,1 hPa 0,0 l/m 0 min 0 min 0 W/m 0,0 km/h (0 Bft) 91,49 %
01.05.2022 05:08 8,9 C 7,8 C 4,4 C 85 % 1024,1 hPa 0,0 l/m 0 min 0 min 0 W/m 3,2 km/h (1 Bft) 95,74 %
01.05.2022 05:10 8,9 C 7,8 C 4,4 C 85 % 1024,1 hPa 0,0 l/m 0 min 0 min 0 W/m 3,2 km/h (1 Bft) 95,74 %
01.05.2022 05:12 8,9 C 7,8 C 4,4 C 85 % 1024,0 hPa 0,0 l/m 0 min 0 min 0 W/m 3,2 km/h (1 Bft) 95,65 %
01.05.2022 05:14 8,9 C 7,8 C 4,4 C 85 % 1024,0 hPa 0,0 l/m 0 min 0 min 0 W/m 3,2 km/h (1 Bft) 97,87 %
01.05.2022 05:16 8,8 C 7,8 C 4,4 C 85 % 1024,0 hPa 0,0 l/m 0 min 0 min 0 W/m 6,4 km/h (2 Bft) 95,74 %
01.05.2022 05:18 8,8 C 7,8 C 4,4 C 85 % 1024,0 hPa 0,0 l/m 0 min 0 min 0 W/m 3,2 km/h (1 Bft) 100,00 %
01.05.2022 05:20 8,8 C 7,8 C 4,4 C 85 % 1023,9 hPa 0,0 l/m 0 min 0 min 0 W/m 3,2 km/h (1 Bft) 97,87 %
01.05.2022 05:22 8,8 C 7,8 C 4,4 C 85 % 1023,9 hPa 0,0 l/m 0 min 0 min 0 W/m 3,2 km/h (1 Bft) 97,87 %
01.05.2022 05:24 8,8 C 7,8 C 4,4 C 85 % 1023,9 hPa 0,0 l/m 0 min 0 min 0 W/m 3,2 km/h (1 Bft) 97,83 %
01.05.2022 05:26 8,8 C 7,8 C 4,4 C 85 % 1023,9 hPa 0,0 l/m 0 min 0 min 0 W/m 3,2 km/h (1 Bft) 97,87 %
01.05.2022 05:28 8,8 C 7,8 C 4,4 C 85 % 1024,0 hPa 0,0 l/m 0 min 0 min 0 W/m 3,2 km/h (1 Bft) 100,00 %
01.05.2022 05:30 8,8 C 7,8 C 4,4 C 85 % 1023,9 hPa 0,0 l/m 0 min 0 min 0 W/m 3,2 km/h (1 Bft) 100,00 %
01.05.2022 05:32 8,7 C 7,8 C 4,4 C 85 % 1023,9 hPa 0,0 l/m 0 min 0 min 0 W/m 3,2 km/h (1 Bft) 100,00 %
01.05.2022 05:34 8,7 C 7,2 C 4,4 C 85 % 1023,9 hPa 0,0 l/m 0 min 0 min 0 W/m 3,2 km/h (1 Bft) 97,87 %
01.05.2022 05:36 8,7 C 7,2 C 4,4 C 85 % 1023,9 hPa 0,0 l/m 0 min 0 min 0 W/m 0,0 km/h (0 Bft) 97,87 %
01.05.2022 05:38 8,7 C 7,2 C 4,4 C 85 % 1023,9 hPa 0,0 l/m 0 min 0 min 0 W/m 3,2 km/h (1 Bft) 100,00 %
01.05.2022 05:40 8,7 C 7,2 C 4,4 C 86 % 1023,9 hPa 0,0 l/m 0 min 0 min 0 W/m 0,0 km/h (0 Bft) 100,00 %
01.05.2022 05:42 8,6 C 7,2 C 4,4 C 85 % 1023,9 hPa 0,0 l/m 0 min 0 min 0 W/m 3,2 km/h (1 Bft) 100,00 %
01.05.2022 05:44 8,6 C 7,2 C 4,4 C 86 % 1023,9 hPa 0,0 l/m 0 min 0 min 0 W/m 3,2 km/h (1 Bft) 100,00 %
01.05.2022 05:46 8,6 C 7,2 C 4,4 C 86 % 1023,9 hPa 0,0 l/m 0 min 0 min 0 W/m 3,2 km/h (1 Bft) 100,00 %
01.05.2022 05:48 8,6 C 7,2 C 4,4 C 86 % 1023,9 hPa 0,0 l/m 0 min 0 min 0 W/m 3,2 km/h (1 Bft) 97,83 %
01.05.2022 05:50 8,6 C 7,2 C 4,4 C 86 % 1023,9 hPa 0,0 l/m 0 min 0 min 0 W/m 0,0 km/h (0 Bft) 100,00 %
01.05.2022 05:52 8,5 C 7,2 C 4,4 C 86 % 1023,8 hPa 0,0 l/m 0 min 0 min 0 W/m 3,2 km/h (1 Bft) 95,74 %
01.05.2022 05:54 8,5 C 7,2 C 4,4 C 86 % 1023,8 hPa 0,0 l/m 0 min 0 min 0 W/m 3,2 km/h (1 Bft) 100,00 %
01.05.2022 05:56 8,4 C 7,2 C 3,9 C 86 % 1023,9 hPa 0,0 l/m 0 min 0 min 0 W/m 3,2 km/h (1 Bft) 100,00 %
01.05.2022 05:58 8,4 C 7,2 C 3,9 C 86 % 1023,9 hPa 0,0 l/m 0 min 0 min 0 W/m 0,0 km/h (0 Bft) 100,00 %
01.05.2022 06:00 8,4 C 7,2 C 4,4 C 86 % 1023,8 hPa 0,0 l/m 0 min 0 min 0 W/m 0,0 km/h (0 Bft) 100,00 %
01.05.2022 06:02 8,4 C 7,2 C 4,4 C 86 % 1023,8 hPa 0,0 l/m 0 min 0 min 0 W/m 0,0 km/h (0 Bft) 97,87 %
01.05.2022 06:04 8,4 C 7,2 C 4,4 C 87 % 1023,8 hPa 0,0 l/m 0 min 0 min 0 W/m 3,2 km/h (1 Bft) 100,00 %
01.05.2022 06:08 8,4 C 7,2 C 4,4 C 86 % 1023,8 hPa 0,0 l/m 0 min 0 min 0 W/m 0,0 km/h (0 Bft) 97,87 %
01.05.2022 06:10 8,4 C 7,2 C 4,4 C 87 % 1023,8 hPa 0,0 l/m 0 min 0 min 0 W/m 0,0 km/h (0 Bft) 97,87 %
01.05.2022 06:12 8,4 C 7,2 C 4,4 C 87 % 1023,9 hPa 0,0 l/m 0 min 0 min 1 W/m 3,2 km/h (1 Bft) 97,83 %
01.05.2022 06:14 8,4 C 7,2 C 4,4 C 87 % 1023,9 hPa 0,0 l/m 0 min 0 min 5 W/m 0,0 km/h (0 Bft) 55,56 %
01.05.2022 06:16 8,3 C 7,2 C 4,4 C 87 % 1023,9 hPa 0,0 l/m 0 min 0 min 5 W/m 0,0 km/h (0 Bft) 94,87 %
01.05.2022 06:18 8,3 C 7,8 C 4,4 C 87 % 1023,9 hPa 0,0 l/m 0 min 0 min 6 W/m 0,0 km/h (0 Bft) 97,87 %
01.05.2022 06:20 8,3 C 7,8 C 4,4 C 87 % 1023,9 hPa 0,0 l/m 0 min 0 min 7 W/m 3,2 km/h (1 Bft) 97,87 %
01.05.2022 06:22 8,3 C 7,8 C 4,4 C 87 % 1023,9 hPa 0,0 l/m 0 min 0 min 7 W/m 0,0 km/h (0 Bft) 95,74 %
01.05.2022 06:24 8,3 C 7,8 C 4,4 C 87 % 1023,9 hPa 0,0 l/m 0 min 0 min 7 W/m 0,0 km/h (0 Bft) 97,83 %
01.05.2022 06:26 8,4 C 7,8 C 4,4 C 87 % 1023,9 hPa 0,0 l/m 0 min 0 min 8 W/m 0,0 km/h (0 Bft) 97,87 %
01.05.2022 06:28 8,4 C 7,8 C 4,4 C 88 % 1023,9 hPa 0,0 l/m 0 min 0 min 10 W/m 0,0 km/h (0 Bft) 97,87 %
01.05.2022 06:30 8,4 C 7,8 C 4,4 C 88 % 1023,9 hPa 0,0 l/m 0 min 0 min 12 W/m 0,0 km/h (0 Bft) 97,87 %
01.05.2022 06:32 8,4 C 7,8 C 4,4 C 88 % 1023,9 hPa 0,0 l/m 0 min 0 min 14 W/m 0,0 km/h (0 Bft) 97,87 %
01.05.2022 06:34 8,4 C 7,8 C 4,4 C 88 % 1023,9 hPa 0,0 l/m 0 min 0 min 16 W/m 0,0 km/h (0 Bft) 97,83 %
01.05.2022 06:36 8,4 C 7,8 C 4,4 C 88 % 1023,9 hPa 0,0 l/m 0 min 0 min 18 W/m 3,2 km/h (1 Bft) 95,74 %
01.05.2022 06:38 8,3 C 7,8 C 4,4 C 88 % 1023,9 hPa 0,0 l/m 0 min 0 min 19 W/m 3,2 km/h (1 Bft) 95,74 %
01.05.2022 06:40 8,3 C 7,8 C 4,4 C 88 % 1024,0 hPa 0,0 l/m 0 min 0 min 20 W/m 0,0 km/h (0 Bft) 100,00 %
01.05.2022 06:42 8,3 C 7,8 C 4,4 C 88 % 1023,9 hPa 0,0 l/m 0 min 0 min 22 W/m 0,0 km/h (0 Bft) 97,87 %
01.05.2022 06:44 8,3 C 7,8 C 4,4 C 88 % 1023,9 hPa 0,0 l/m 0 min 0 min 23 W/m 3,2 km/h (1 Bft) 97,87 %
01.05.2022 06:46 8,3 C 7,8 C 4,4 C 88 % 1023,9 hPa 0,0 l/m 0 min 0 min 25 W/m 0,0 km/h (0 Bft) 100,00 %
01.05.2022 06:48 8,3 C 7,8 C 4,4 C 88 % 1023,9 hPa 0,0 l/m 0 min 0 min 26 W/m 3,2 km/h (1 Bft) 100,00 %
01.05.2022 06:50 8,3 C 7,8 C 4,4 C 88 % 1023,9 hPa 0,0 l/m 0 min 0 min 29 W/m 0,0 km/h (0 Bft) 95,74 %
01.05.2022 06:52 8,3 C 7,8 C 4,4 C 88 % 1023,9 hPa 0,0 l/m 0 min 0 min 31 W/m 0,0 km/h (0 Bft) 97,87 %
01.05.2022 06:54 8,3 C 7,8 C 4,4 C 88 % 1023,9 hPa 0,0 l/m 0 min 0 min 33 W/m 0,0 km/h (0 Bft) 100,00 %
01.05.2022 06:56 8,4 C 7,8 C 4,4 C 88 % 1023,9 hPa 0,0 l/m 0 min 0 min 35 W/m 0,0 km/h (0 Bft) 97,87 %
01.05.2022 06:58 8,4 C 7,8 C 4,4 C 88 % 1023,9 hPa 0,0 l/m 0 min 0 min 37 W/m 3,2 km/h (1 Bft) 97,83 %
01.05.2022 07:00 8,4 C 7,8 C 4,4 C 88 % 1023,9 hPa 0,0 l/m 0 min 0 min 37 W/m 0,0 km/h (0 Bft) 97,87 %
01.05.2022 07:02 8,4 C 7,8 C 4,4 C 88 % 1023,9 hPa 0,0 l/m 0 min 0 min 39 W/m 0,0 km/h (0 Bft) 97,87 %
01.05.2022 07:04 8,4 C 7,8 C 4,4 C 88 % 1024,0 hPa 0,0 l/m 0 min 0 min 40 W/m 0,0 km/h (0 Bft) 97,87 %
01.05.2022 07:06 8,4 C 7,8 C 4,4 C 88 % 1024,0 hPa 0,0 l/m 0 min 0 min 42 W/m 0,0 km/h (0 Bft) 97,87 %
01.05.2022 07:08 8,4 C 7,8 C 4,4 C 88 % 1024,0 hPa 0,0 l/m 0 min 0 min 43 W/m 0,0 km/h (0 Bft) 97,87 %
01.05.2022 07:10 8,4 C 7,8 C 4,4 C 88 % 1024,0 hPa 0,0 l/m 0 min 0 min 45 W/m 0,0 km/h (0 Bft) 97,83 %
01.05.2022 07:12 8,4 C 7,8 C 5,0 C 88 % 1024,0 hPa 0,0 l/m 0 min 0 min 49 W/m 0,0 km/h (0 Bft) 97,87 %
01.05.2022 07:14 8,4 C 7,8 C 5,0 C 89 % 1024,0 hPa 0,0 l/m 0 min 0 min 53 W/m 0,0 km/h (0 Bft) 95,74 %
01.05.2022 07:16 8,5 C 7,8 C 5,0 C 89 % 1024,1 hPa 0,0 l/m 0 min 0 min 54 W/m 0,0 km/h (0 Bft) 97,87 %
01.05.2022 07:18 8,5 C 8,3 C 5,0 C 89 % 1024,1 hPa 0,0 l/m 0 min 0 min 56 W/m 0,0 km/h (0 Bft) 97,87 %
01.05.2022 07:20 8,5 C 8,3 C 5,0 C 89 % 1024,1 hPa 0,0 l/m 0 min 0 min 58 W/m 0,0 km/h (0 Bft) 97,87 %
01.05.2022 07:22 8,5 C 8,3 C 5,0 C 89 % 1024,1 hPa 0,0 l/m 0 min 0 min 61 W/m 0,0 km/h (0 Bft) 95,65 %
01.05.2022 07:24 8,6 C 8,3 C 5,0 C 89 % 1024,1 hPa 0,0 l/m 0 min 0 min 63 W/m 0,0 km/h (0 Bft) 97,87 %
01.05.2022 07:26 8,6 C 8,3 C 5,0 C 89 % 1024,1 hPa 0,0 l/m 0 min 0 min 63 W/m 0,0 km/h (0 Bft) 97,87 %
01.05.2022 07:28 8,6 C 8,3 C 5,0 C 89 % 1024,1 hPa 0,0 l/m 0 min 0 min 65 W/m 3,2 km/h (1 Bft) 97,87 %
01.05.2022 07:30 8,6 C 8,3 C 5,0 C 89 % 1024,1 hPa 0,0 l/m 0 min 0 min 68 W/m 3,2 km/h (1 Bft) 97,87 %
01.05.2022 07:32 8,6 C 8,3 C 5,0 C 89 % 1024,2 hPa 0,0 l/m 0 min 0 min 71 W/m 6,4 km/h (2 Bft) 97,87 %
01.05.2022 07:34 8,7 C 8,3 C 5,0 C 89 % 1024,2 hPa 0,0 l/m 0 min 0 min 74 W/m 3,2 km/h (1 Bft) 97,83 %
01.05.2022 07:36 8,7 C 8,3 C 5,0 C 89 % 1024,2 hPa 0,0 l/m 0 min 0 min 75 W/m 3,2 km/h (1 Bft) 97,87 %
01.05.2022 07:38 8,7 C 8,9 C 5,0 C 89 % 1024,2 hPa 0,0 l/m 0 min 0 min 76 W/m 3,2 km/h (1 Bft) 97,87 %
01.05.2022 07:40 8,7 C 8,9 C 5,0 C 88 % 1024,2 hPa 0,0 l/m 0 min 0 min 76 W/m 3,2 km/h (1 Bft) 97,96 %
01.05.2022 07:42 8,8 C 8,9 C 5,6 C 88 % 1024,2 hPa 0,0 l/m 0 min 0 min 77 W/m 3,2 km/h (1 Bft) 97,87 %
01.05.2022 07:44 8,8 C 8,9 C 5,6 C 88 % 1024,2 hPa 0,0 l/m 0 min 0 min 80 W/m 3,2 km/h (1 Bft) 97,87 %
01.05.2022 07:46 8,8 C 8,9 C 5,6 C 88 % 1024,2 hPa 0,0 l/m 0 min 0 min 84 W/m 3,2 km/h (1 Bft) 97,87 %
01.05.2022 07:48 8,8 C 8,9 C 5,6 C 88 % 1024,2 hPa 0,0 l/m 0 min 0 min 90 W/m 6,4 km/h (2 Bft) 97,87 %
01.05.2022 07:50 8,8 C 8,9 C 5,6 C 88 % 1024,2 hPa 0,0 l/m 0 min 0 min 95 W/m 6,4 km/h (2 Bft) 95,74 %
01.05.2022 07:52 8,8 C 8,9 C 5,6 C 88 % 1024,2 hPa 0,0 l/m 0 min 0 min 101 W/m 6,4 km/h (2 Bft) 97,83 %
01.05.2022 07:54 8,9 C 9,4 C 5,6 C 88 % 1024,2 hPa 0,0 l/m 0 min 0 min 104 W/m 6,4 km/h (2 Bft) 95,74 %
01.05.2022 07:56 8,9 C 8,9 C 5,6 C 88 % 1024,2 hPa 0,0 l/m 0 min 0 min 103 W/m 3,2 km/h (1 Bft) 97,87 %
01.05.2022 07:58 8,9 C 8,9 C 5,6 C 88 % 1024,2 hPa 0,0 l/m 0 min 0 min 99 W/m 6,4 km/h (2 Bft) 91,49 %
01.05.2022 08:00 9,0 C 9,4 C 5,6 C 88 % 1024,2 hPa 0,0 l/m 0 min 0 min 98 W/m 3,2 km/h (1 Bft) 95,74 %
01.05.2022 08:02 9,1 C 9,4 C 5,6 C 88 % 1024,2 hPa 0,0 l/m 0 min 0 min 93 W/m 3,2 km/h (1 Bft) 95,74 %
01.05.2022 08:04 9,1 C 9,4 C 5,6 C 88 % 1024,2 hPa 0,0 l/m 0 min 0 min 89 W/m 3,2 km/h (1 Bft) 95,65 %
01.05.2022 08:06 9,1 C 9,4 C 5,6 C 88 % 1024,2 hPa 0,0 l/m 0 min 0 min 88 W/m 3,2 km/h (1 Bft) 93,62 %
01.05.2022 08:08 9,2 C 9,4 C 5,6 C 88 % 1024,2 hPa 0,0 l/m 0 min 0 min 89 W/m 3,2 km/h (1 Bft) 95,74 %
01.05.2022 08:10 9,2 C 9,4 C 5,6 C 88 % 1024,2 hPa 0,0 l/m 0 min 0 min 93 W/m 3,2 km/h (1 Bft) 95,74 %
01.05.2022 08:12 9,3 C 9,4 C 6,1 C 87 % 1024,2 hPa 0,0 l/m 0 min 0 min 100 W/m 9,7 km/h (2 Bft) 95,74 %
01.05.2022 08:14 9,3 C 9,4 C 6,1 C 87 % 1024,2 hPa 0,0 l/m 0 min 0 min 104 W/m 6,4 km/h (2 Bft) 95,65 %
01.05.2022 08:16 9,3 C 9,4 C 6,1 C 87 % 1024,2 hPa 0,0 l/m 0 min 0 min 104 W/m 3,2 km/h (1 Bft) 93,62 %
01.05.2022 08:18 9,4 C 9,4 C 6,1 C 87 % 1024,2 hPa 0,0 l/m 0 min 0 min 104 W/m 6,4 km/h (2 Bft) 95,74 %
01.05.2022 08:20 9,4 C 9,4 C 6,1 C 86 % 1024,2 hPa 0,0 l/m 0 min 0 min 105 W/m 3,2 km/h (1 Bft) 95,74 %
01.05.2022 08:22 9,5 C 10,0 C 6,1 C 86 % 1024,2 hPa 0,0 l/m 0 min 0 min 106 W/m 3,2 km/h (1 Bft) 97,87 %
01.05.2022 08:24 9,6 C 10,0 C 6,1 C 86 % 1024,3 hPa 0,0 l/m 0 min 0 min 109 W/m 3,2 km/h (1 Bft) 93,62 %
01.05.2022 08:26 9,6 C 10,0 C 6,1 C 86 % 1024,3 hPa 0,0 l/m 0 min 0 min 112 W/m 3,2 km/h (1 Bft) 97,83 %
01.05.2022 08:28 9,6 C 10,0 C 6,1 C 86 % 1024,3 hPa 0,0 l/m 0 min 0 min 115 W/m 3,2 km/h (1 Bft) 97,87 %
01.05.2022 08:30 9,7 C 10,0 C 6,1 C 86 % 1024,3 hPa 0,0 l/m 0 min 0 min 119 W/m 6,4 km/h (2 Bft) 97,87 %
01.05.2022 08:32 9,7 C 10,0 C 6,1 C 86 % 1024,3 hPa 0,0 l/m 0 min 0 min 121 W/m 12,9 km/h (3 Bft) 97,87 %
01.05.2022 08:34 9,7 C 10,0 C 6,1 C 85 % 1024,3 hPa 0,0 l/m 0 min 0 min 125 W/m 9,7 km/h (2 Bft) 97,87 %
01.05.2022 08:36 9,8 C 10,0 C 6,7 C 85 % 1024,2 hPa 0,0 l/m 0 min 0 min 129 W/m 3,2 km/h (1 Bft) 100,00 %
01.05.2022 08:38 9,8 C 10,0 C 6,7 C 85 % 1024,2 hPa 0,0 l/m 0 min 0 min 130 W/m 6,4 km/h (2 Bft) 100,00 %
01.05.2022 08:40 9,8 C 10,0 C 6,7 C 85 % 1024,2 hPa 0,0 l/m 0 min 0 min 130 W/m 3,2 km/h (1 Bft) 100,00 %
01.05.2022 08:42 9,9 C 10,6 C 6,7 C 85 % 1024,2 hPa 0,0 l/m 0 min 0 min 130 W/m 0,0 km/h (0 Bft) 97,87 %
01.05.2022 08:44 9,9 C 10,6 C 6,7 C 85 % 1024,2 hPa 0,0 l/m 0 min 0 min 131 W/m 3,2 km/h (1 Bft) 97,87 %
01.05.2022 08:46 9,9 C 10,6 C 6,7 C 84 % 1024,2 hPa 0,0 l/m 0 min 0 min 133 W/m 6,4 km/h (2 Bft) 100,00 %
01.05.2022 08:48 10,0 C 10,6 C 6,7 C 84 % 1024,3 hPa 0,0 l/m 0 min 0 min 135 W/m 6,4 km/h (2 Bft) 100,00 %
01.05.2022 08:50 10,1 C 10,6 C 6,7 C 84 % 1024,3 hPa 0,0 l/m 0 min 0 min 138 W/m 6,4 km/h (2 Bft) 100,00 %
01.05.2022 08:52 10,1 C 10,6 C 6,7 C 84 % 1024,3 hPa 0,0 l/m 0 min 0 min 141 W/m 6,4 km/h (2 Bft) 100,00 %
01.05.2022 08:54 10,1 C 10,6 C 6,7 C 84 % 1024,3 hPa 0,0 l/m 0 min 0 min 143 W/m 3,2 km/h (1 Bft) 100,00 %
01.05.2022 08:56 10,2 C 10,6 C 6,7 C 83 % 1024,3 hPa 0,0 l/m 0 min 0 min 148 W/m 3,2 km/h (1 Bft) 100,00 %
01.05.2022 08:58 10,2 C 11,1 C 6,7 C 83 % 1024,3 hPa 0,0 l/m 0 min 0 min 150 W/m 6,4 km/h (2 Bft) 100,00 %
01.05.2022 09:00 10,3 C 11,1 C 6,7 C 83 % 1024,3 hPa 0,0 l/m 0 min 0 min 153 W/m 6,4 km/h (2 Bft) 97,87 %
01.05.2022 09:02 10,3 C 10,6 C 6,7 C 83 % 1024,3 hPa 0,0 l/m 0 min 0 min 153 W/m 6,4 km/h (2 Bft) 100,00 %
01.05.2022 09:04 10,3 C 11,1 C 6,7 C 82 % 1024,3 hPa 0,0 l/m 0 min 0 min 155 W/m 6,4 km/h (2 Bft) 100,00 %
01.05.2022 09:06 10,3 C 11,1 C 6,7 C 82 % 1024,3 hPa 0,0 l/m 0 min 0 min 157 W/m 6,4 km/h (2 Bft) 100,00 %
01.05.2022 09:08 10,4 C 11,1 C 6,7 C 82 % 1024,3 hPa 0,0 l/m 0 min 0 min 159 W/m 3,2 km/h (1 Bft) 100,00 %
01.05.2022 09:10 10,4 C 11,1 C 6,7 C 82 % 1024,3 hPa 0,0 l/m 0 min 0 min 162 W/m 3,2 km/h (1 Bft) 100,00 %
01.05.2022 09:12 10,4 C 11,1 C 7,2 C 82 % 1024,2 hPa 0,0 l/m 0 min 0 min 165 W/m 3,2 km/h (1 Bft) 100,00 %
01.05.2022 09:14 10,5 C 11,1 C 7,2 C 82 % 1024,3 hPa 0,0 l/m 0 min 0 min 170 W/m 3,2 km/h (1 Bft) 100,00 %
01.05.2022 09:16 10,5 C 11,7 C 7,2 C 81 % 1024,3 hPa 0,0 l/m 0 min 0 min 171 W/m 3,2 km/h (1 Bft) 100,00 %
01.05.2022 09:18 10,6 C 11,1 C 7,2 C 81 % 1024,3 hPa 0,0 l/m 0 min 0 min 171 W/m 6,4 km/h (2 Bft) 100,00 %
01.05.2022 09:20 10,6 C 11,1 C 7,2 C 81 % 1024,3 hPa 0,0 l/m 0 min 0 min 172 W/m 3,2 km/h (1 Bft) 100,00 %
01.05.2022 09:22 10,6 C 11,1 C 7,2 C 81 % 1024,3 hPa 0,0 l/m 0 min 0 min 169 W/m 3,2 km/h (1 Bft) 97,87 %
01.05.2022 09:24 10,7 C 11,1 C 7,2 C 81 % 1024,2 hPa 0,0 l/m 0 min 0 min 167 W/m 3,2 km/h (1 Bft) 100,00 %
01.05.2022 09:26 10,7 C 11,1 C 7,2 C 80 % 1024,3 hPa 0,0 l/m 0 min 0 min 168 W/m 3,2 km/h (1 Bft) 100,00 %
01.05.2022 09:28 10,8 C 11,1 C 7,2 C 80 % 1024,3 hPa 0,0 l/m 0 min 0 min 169 W/m 6,4 km/h (2 Bft) 97,83 %
01.05.2022 09:30 10,8 C 11,7 C 7,2 C 80 % 1024,3 hPa 0,0 l/m 0 min 0 min 172 W/m 9,7 km/h (2 Bft) 100,00 %
01.05.2022 09:32 10,9 C 11,1 C 7,2 C 80 % 1024,3 hPa 0,0 l/m 0 min 0 min 175 W/m 6,4 km/h (2 Bft) 100,00 %
01.05.2022 09:34 10,9 C 11,1 C 7,2 C 80 % 1024,3 hPa 0,0 l/m 0 min 0 min 176 W/m 3,2 km/h (1 Bft) 100,00 %
01.05.2022 09:36 10,9 C 11,1 C 7,2 C 79 % 1024,4 hPa 0,0 l/m 0 min 0 min 174 W/m 3,2 km/h (1 Bft) 87,23 %
01.05.2022 09:38 11,0 C 11,7 C 7,8 C 79 % 1024,4 hPa 0,0 l/m 0 min 0 min 175 W/m 3,2 km/h (1 Bft) 48,28 %
01.05.2022 09:40 11,1 C 11,1 C 7,8 C 80 % 1024,4 hPa 0,0 l/m 0 min 0 min 180 W/m 3,2 km/h (1 Bft) 100,00 %
01.05.2022 09:42 11,1 C 11,7 C 7,8 C 80 % 1024,4 hPa 0,0 l/m 0 min 0 min 186 W/m 3,2 km/h (1 Bft) 97,87 %
01.05.2022 09:44 11,1 C 11,7 C 7,8 C 80 % 1024,3 hPa 0,0 l/m 0 min 0 min 192 W/m 3,2 km/h (1 Bft) 100,00 %
01.05.2022 09:46 11,2 C 11,7 C 7,8 C 80 % 1024,4 hPa 0,0 l/m 0 min 0 min 194 W/m 3,2 km/h (1 Bft) 95,74 %
01.05.2022 09:48 11,2 C 11,1 C 7,8 C 79 % 1024,4 hPa 0,0 l/m 0 min 0 min 197 W/m 6,4 km/h (2 Bft) 100,00 %
01.05.2022 09:50 11,2 C 11,1 C 7,2 C 79 % 1024,4 hPa 0,0 l/m 0 min 0 min 199 W/m 6,4 km/h (2 Bft) 97,83 %
01.05.2022 09:52 11,2 C 11,7 C 7,8 C 79 % 1024,4 hPa 0,0 l/m 0 min 0 min 204 W/m 0,0 km/h (0 Bft) 97,87 %
01.05.2022 09:54 11,3 C 11,7 C 7,8 C 79 % 1024,4 hPa 0,0 l/m 0 min 0 min 209 W/m 3,2 km/h (1 Bft) 97,87 %
01.05.2022 09:56 11,3 C 11,7 C 7,8 C 79 % 1024,4 hPa 0,0 l/m 0 min 0 min 213 W/m 6,4 km/h (2 Bft) 97,87 %
01.05.2022 09:58 11,3 C 11,7 C 7,8 C 79 % 1024,4 hPa 0,0 l/m 0 min 0 min 217 W/m 6,4 km/h (2 Bft) 93,62 %
01.05.2022 10:00 11,4 C 11,7 C 7,8 C 79 % 1024,4 hPa 0,0 l/m 0 min 0 min 224 W/m 9,7 km/h (2 Bft) 95,74 %
01.05.2022 10:02 11,4 C 12,2 C 7,8 C 78 % 1024,4 hPa 0,0 l/m 0 min 0 min 232 W/m 6,4 km/h (2 Bft) 95,65 %
01.05.2022 10:04 11,4 C 12,2 C 7,8 C 78 % 1024,4 hPa 0,0 l/m 0 min 0 min 236 W/m 9,7 km/h (2 Bft) 95,74 %
01.05.2022 10:06 11,5 C 12,2 C 7,8 C 78 % 1024,4 hPa 0,0 l/m 0 min 0 min 237 W/m 6,4 km/h (2 Bft) 93,62 %
01.05.2022 10:08 11,5 C 12,2 C 8,3 C 78 % 1024,3 hPa 0,0 l/m 0 min 0 min 241 W/m 6,4 km/h (2 Bft) 95,74 %
01.05.2022 10:10 11,6 C 12,2 C 8,3 C 78 % 1024,4 hPa 0,0 l/m 0 min 0 min 245 W/m 6,4 km/h (2 Bft) 95,74 %
01.05.2022 10:12 11,6 C 12,2 C 8,3 C 78 % 1024,4 hPa 0,0 l/m 0 min 0 min 252 W/m 6,4 km/h (2 Bft) 93,62 %
01.05.2022 10:14 11,7 C 12,2 C 8,3 C 78 % 1024,4 hPa 0,0 l/m 0 min 0 min 256 W/m 6,4 km/h (2 Bft) 95,65 %
01.05.2022 10:16 11,7 C 12,2 C 8,3 C 78 % 1024,4 hPa 0,0 l/m 0 min 0 min 263 W/m 6,4 km/h (2 Bft) 95,74 %
01.05.2022 10:18 11,7 C 12,8 C 8,3 C 77 % 1024,4 hPa 0,0 l/m 0 min 0 min 269 W/m 6,4 km/h (2 Bft) 95,74 %
01.05.2022 10:20 11,8 C 12,8 C 8,3 C 77 % 1024,4 hPa 0,0 l/m 0 min 0 min 268 W/m 12,9 km/h (3 Bft) 93,62 %
01.05.2022 10:22 11,8 C 12,8 C 8,3 C 77 % 1024,4 hPa 0,0 l/m 0 min 0 min 267 W/m 9,7 km/h (2 Bft) 95,92 %
01.05.2022 10:24 11,8 C 12,8 C 8,3 C 76 % 1024,4 hPa 0,0 l/m 0 min 0 min 270 W/m 3,2 km/h (1 Bft) 93,62 %
01.05.2022 10:26 11,9 C 12,8 C 8,3 C 76 % 1024,4 hPa 0,0 l/m 0 min 0 min 269 W/m 9,7 km/h (2 Bft) 93,62 %
01.05.2022 10:28 11,9 C 12,8 C 8,3 C 76 % 1024,4 hPa 0,0 l/m 0 min 0 min 268 W/m 6,4 km/h (2 Bft) 91,49 %
01.05.2022 10:30 12,0 C 12,8 C 8,9 C 76 % 1024,4 hPa 0,0 l/m 0 min 0 min 274 W/m 3,2 km/h (1 Bft) 93,62 %
01.05.2022 10:32 12,0 C 12,8 C 8,9 C 76 % 1024,4 hPa 0,0 l/m 0 min 0 min 280 W/m 6,4 km/h (2 Bft) 93,48 %
01.05.2022 10:34 12,1 C 12,8 C 8,9 C 76 % 1024,4 hPa 0,0 l/m 0 min 0 min 289 W/m 6,4 km/h (2 Bft) 91,49 %
01.05.2022 10:36 12,1 C 12,8 C 8,9 C 76 % 1024,4 hPa 0,0 l/m 0 min 0 min 308 W/m 6,4 km/h (2 Bft) 93,62 %
01.05.2022 10:38 12,1 C 13,3 C 8,9 C 76 % 1024,3 hPa 0,0 l/m 2 min 0 min 314 W/m 6,4 km/h (2 Bft) 95,74 %
01.05.2022 10:40 12,2 C 13,3 C 8,9 C 76 % 1024,3 hPa 0,0 l/m 2 min 0 min 319 W/m 9,7 km/h (2 Bft) 95,74 %
01.05.2022 10:42 12,2 C 13,3 C 8,9 C 75 % 1024,4 hPa 0,0 l/m 2 min 0 min 323 W/m 12,9 km/h (3 Bft) 95,65 %
01.05.2022 10:44 12,3 C 13,3 C 8,9 C 75 % 1024,3 hPa 0,0 l/m 2 min 0 min 328 W/m 12,9 km/h (3 Bft) 95,74 %
01.05.2022 10:46 12,3 C 13,3 C 9,4 C 74 % 1024,3 hPa 0,0 l/m 2 min 0 min 333 W/m 16,1 km/h (3 Bft) 97,87 %
01.05.2022 10:48 12,4 C 13,9 C 9,4 C 73 % 1024,3 hPa 0,0 l/m 2 min 0 min 342 W/m 16,1 km/h (3 Bft) 95,74 %
01.05.2022 10:50 12,4 C 13,9 C 9,4 C 73 % 1024,3 hPa 0,0 l/m 2 min 0 min 355 W/m 19,3 km/h (3 Bft) 95,74 %
01.05.2022 10:52 12,5 C 13,9 C 9,4 C 72 % 1024,3 hPa 0,0 l/m 2 min 0 min 367 W/m 6,4 km/h (2 Bft) 93,62 %
01.05.2022 10:54 12,5 C 13,9 C 9,4 C 71 % 1024,3 hPa 0,0 l/m 2 min 0 min 371 W/m 12,9 km/h (3 Bft) 95,65 %
01.05.2022 10:56 12,6 C 13,9 C 9,4 C 71 % 1024,3 hPa 0,0 l/m 2 min 0 min 367 W/m 16,1 km/h (3 Bft) 95,74 %
01.05.2022 10:58 12,6 C 13,9 C 9,4 C 71 % 1024,3 hPa 0,0 l/m 2 min 0 min 358 W/m 9,7 km/h (2 Bft) 97,87 %
01.05.2022 11:00 12,7 C 13,9 C 9,4 C 71 % 1024,3 hPa 0,0 l/m 2 min 0 min 350 W/m 12,9 km/h (3 Bft) 95,74 %
01.05.2022 11:02 12,8 C 14,4 C 9,4 C 71 % 1024,4 hPa 0,0 l/m 2 min 0 min 342 W/m 9,7 km/h (2 Bft) 97,87 %
01.05.2022 11:04 12,9 C 14,4 C 9,4 C 71 % 1024,3 hPa 0,0 l/m 0 min 0 min 332 W/m 9,7 km/h (2 Bft) 100,00 %
01.05.2022 11:06 13,0 C 14,4 C 10,0 C 71 % 1024,4 hPa 0,0 l/m 0 min 0 min 333 W/m 16,1 km/h (3 Bft) 97,83 %
01.05.2022 11:08 13,1 C 14,4 C 9,4 C 70 % 1024,3 hPa 0,0 l/m 0 min 0 min 338 W/m 9,7 km/h (2 Bft) 100,00 %
01.05.2022 11:10 13,2 C 14,4 C 10,0 C 70 % 1024,3 hPa 0,0 l/m 2 min 0 min 348 W/m 3,2 km/h (1 Bft) 100,00 %
01.05.2022 11:12 13,4 C 14,4 C 10,0 C 69 % 1024,4 hPa 0,0 l/m 2 min 0 min 367 W/m 9,7 km/h (2 Bft) 97,87 %
01.05.2022 11:14 13,5 C 15,0 C 10,0 C 69 % 1024,4 hPa 0,0 l/m 2 min 0 min 390 W/m 9,7 km/h (2 Bft) 95,74 %
01.05.2022 11:16 13,6 C 15,0 C 10,6 C 68 % 1024,4 hPa 0,0 l/m 2 min 0 min 407 W/m 9,7 km/h (2 Bft) 100,00 %
01.05.2022 11:18 13,7 C 15,0 C 10,6 C 67 % 1024,4 hPa 0,0 l/m 2 min 0 min 419 W/m 19,3 km/h (3 Bft) 100,00 %
01.05.2022 11:20 13,7 C 15,6 C 10,6 C 67 % 1024,3 hPa 0,0 l/m 2 min 0 min 420 W/m 19,3 km/h (3 Bft) 100,00 %
01.05.2022 11:22 13,7 C 15,0 C 10,6 C 67 % 1024,4 hPa 0,0 l/m 2 min 0 min 415 W/m 16,1 km/h (3 Bft) 97,87 %
01.05.2022 11:24 13,8 C 15,6 C 10,6 C 66 % 1024,4 hPa 0,0 l/m 2 min 0 min 420 W/m 12,9 km/h (3 Bft) 100,00 %
01.05.2022 11:26 13,9 C 15,6 C 10,6 C 66 % 1024,4 hPa 0,0 l/m 2 min 0 min 423 W/m 12,9 km/h (3 Bft) 100,00 %
01.05.2022 11:28 13,9 C 15,6 C 10,6 C 65 % 1024,4 hPa 0,0 l/m 2 min 0 min 417 W/m 9,7 km/h (2 Bft) 100,00 %
01.05.2022 11:30 14,0 C 15,6 C 10,6 C 63 % 1024,4 hPa 0,0 l/m 2 min 0 min 415 W/m 6,4 km/h (2 Bft) 97,83 %
01.05.2022 11:32 14,1 C 15,6 C 10,6 C 64 % 1024,4 hPa 0,0 l/m 2 min 0 min 407 W/m 12,9 km/h (3 Bft) 100,00 %
01.05.2022 11:34 14,1 C 16,1 C 10,6 C 64 % 1024,4 hPa 0,0 l/m 2 min 0 min 416 W/m 9,7 km/h (2 Bft) 100,00 %
01.05.2022 11:36 14,3 C 16,1 C 11,1 C 64 % 1024,4 hPa 0,0 l/m 2 min 0 min 424 W/m 12,9 km/h (3 Bft) 100,00 %
01.05.2022 11:38 14,3 C 16,1 C 11,1 C 64 % 1024,4 hPa 0,0 l/m 2 min 0 min 436 W/m 6,4 km/h (2 Bft) 100,00 %
01.05.2022 11:40 14,3 C 16,7 C 11,1 C 64 % 1024,4 hPa 0,0 l/m 2 min 0 min 431 W/m 16,1 km/h (3 Bft) 100,00 %
01.05.2022 11:42 14,3 C 16,1 C 11,1 C 62 % 1024,4 hPa 0,0 l/m 2 min 0 min 413 W/m 12,9 km/h (3 Bft) 100,00 %
01.05.2022 11:44 14,3 C 15,6 C 11,1 C 62 % 1024,4 hPa 0,0 l/m 2 min 0 min 399 W/m 12,9 km/h (3 Bft) 100,00 %
01.05.2022 11:46 14,4 C 15,6 C 11,1 C 62 % 1024,4 hPa 0,0 l/m 2 min 0 min 397 W/m 19,3 km/h (3 Bft) 100,00 %
01.05.2022 11:48 14,4 C 16,1 C 11,1 C 62 % 1024,4 hPa 0,0 l/m 2 min 0 min 398 W/m 9,7 km/h (2 Bft) 100,00 %
01.05.2022 11:50 14,5 C 16,1 C 11,1 C 61 % 1024,3 hPa 0,0 l/m 2 min 0 min 396 W/m 16,1 km/h (3 Bft) 97,87 %
01.05.2022 11:52 14,5 C 15,6 C 11,1 C 61 % 1024,3 hPa 0,0 l/m 2 min 0 min 402 W/m 9,7 km/h (2 Bft) 100,00 %
01.05.2022 11:54 14,6 C 15,6 C 11,1 C 59 % 1024,4 hPa 0,0 l/m 2 min 0 min 407 W/m 16,1 km/h (3 Bft) 100,00 %
01.05.2022 11:56 14,6 C 15,6 C 11,1 C 60 % 1024,4 hPa 0,0 l/m 2 min 0 min 402 W/m 6,4 km/h (2 Bft) 100,00 %
01.05.2022 11:58 14,6 C 15,6 C 11,1 C 60 % 1024,4 hPa 0,0 l/m 2 min 0 min 401 W/m 9,7 km/h (2 Bft) 100,00 %
01.05.2022 12:00 14,6 C 15,6 C 11,1 C 59 % 1024,3 hPa 0,0 l/m 2 min 0 min 406 W/m 9,7 km/h (2 Bft) 100,00 %
01.05.2022 12:02 14,7 C 16,1 C 11,1 C 59 % 1024,3 hPa 0,0 l/m 2 min 0 min 412 W/m 9,7 km/h (2 Bft) 100,00 %
01.05.2022 12:04 14,7 C 16,1 C 11,1 C 59 % 1024,3 hPa 0,0 l/m 2 min 0 min 418 W/m 12,9 km/h (3 Bft) 97,87 %
01.05.2022 12:07 14,7 C 15,6 C 11,1 C 58 % 1024,3 hPa 0,0 l/m 3 min 0 min 436 W/m 12,9 km/h (3 Bft) 100,00 %
01.05.2022 12:08 14,7 C 15,6 C 11,1 C 57 % 1024,3 hPa 0,0 l/m 1 min 0 min 446 W/m 6,4 km/h (2 Bft) 100,00 %
01.05.2022 12:10 14,7 C 16,1 C 11,1 C 58 % 1024,3 hPa 0,0 l/m 2 min 0 min 444 W/m 12,9 km/h (3 Bft) 100,00 %
01.05.2022 12:12 14,8 C 15,6 C 11,1 C 56 % 1024,3 hPa 0,0 l/m 2 min 0 min 438 W/m 16,1 km/h (3 Bft) 97,87 %
01.05.2022 12:14 14,8 C 16,1 C 11,1 C 57 % 1024,3 hPa 0,0 l/m 2 min 0 min 442 W/m 12,9 km/h (3 Bft) 97,87 %
01.05.2022 12:16 14,8 C 16,1 C 11,1 C 56 % 1024,3 hPa 0,0 l/m 2 min 0 min 453 W/m 6,4 km/h (2 Bft) 97,83 %
01.05.2022 12:18 14,8 C 16,1 C 11,1 C 55 % 1024,2 hPa 0,0 l/m 2 min 0 min 464 W/m 12,9 km/h (3 Bft) 95,74 %
01.05.2022 12:20 14,9 C 16,1 C 11,1 C 55 % 1024,2 hPa 0,0 l/m 2 min 0 min 460 W/m 9,7 km/h (2 Bft) 97,87 %
01.05.2022 12:22 14,9 C 16,7 C 11,7 C 56 % 1024,2 hPa 0,0 l/m 2 min 0 min 452 W/m 9,7 km/h (2 Bft) 95,74 %
01.05.2022 12:24 14,9 C 16,7 C 11,7 C 55 % 1024,2 hPa 0,0 l/m 2 min 0 min 446 W/m 9,7 km/h (2 Bft) 97,87 %
01.05.2022 12:26 15,0 C 16,7 C 11,7 C 55 % 1024,2 hPa 0,0 l/m 2 min 0 min 439 W/m 9,7 km/h (2 Bft) 95,74 %
01.05.2022 12:28 14,9 C 16,7 C 11,1 C 53 % 1024,2 hPa 0,0 l/m 2 min 0 min 431 W/m 9,7 km/h (2 Bft) 97,83 %
01.05.2022 12:30 14,9 C 17,2 C 11,1 C 55 % 1024,2 hPa 0,0 l/m 2 min 0 min 419 W/m 9,7 km/h (2 Bft) 97,87 %
01.05.2022 12:32 14,9 C 17,2 C 11,1 C 55 % 1024,1 hPa 0,0 l/m 2 min 0 min 405 W/m 9,7 km/h (2 Bft) 97,87 %
01.05.2022 12:34 14,9 C 16,7 C 11,1 C 55 % 1024,2 hPa 0,0 l/m 2 min 0 min 389 W/m 9,7 km/h (2 Bft) 97,87 %
01.05.2022 12:36 14,9 C 17,2 C 11,1 C 56 % 1024,1 hPa 0,0 l/m 0 min 0 min 378 W/m 6,4 km/h (2 Bft) 96,55 %
01.05.2022 12:38 14,9 C 16,7 C 11,1 C 55 % 1024,2 hPa 0,0 l/m 0 min 0 min 366 W/m 6,4 km/h (2 Bft) 100,00 %
01.05.2022 12:40 14,8 C 16,7 C 11,1 C 56 % 1024,1 hPa 0,0 l/m 0 min 0 min 353 W/m 6,4 km/h (2 Bft) 95,65 %
01.05.2022 12:42 14,8 C 16,7 C 11,1 C 56 % 1024,1 hPa 0,0 l/m 0 min 0 min 344 W/m 6,4 km/h (2 Bft) 97,87 %
01.05.2022 12:44 14,8 C 16,7 C 11,1 C 56 % 1024,1 hPa 0,0 l/m 0 min 0 min 345 W/m 9,7 km/h (2 Bft) 97,87 %
01.05.2022 12:46 14,8 C 16,1 C 11,1 C 55 % 1024,0 hPa 0,0 l/m 0 min 0 min 353 W/m 9,7 km/h (2 Bft) 95,74 %
01.05.2022 12:48 14,9 C 16,7 C 11,1 C 56 % 1024,1 hPa 0,0 l/m 0 min 0 min 363 W/m 6,4 km/h (2 Bft) 97,87 %
01.05.2022 12:50 14,9 C 16,7 C 11,1 C 57 % 1024,1 hPa 0,0 l/m 0 min 0 min 366 W/m 6,4 km/h (2 Bft) 100,00 %
01.05.2022 12:52 15,0 C 16,7 C 11,1 C 56 % 1024,0 hPa 0,0 l/m 0 min 0 min 368 W/m 6,4 km/h (2 Bft) 100,00 %
01.05.2022 12:54 15,0 C 16,7 C 11,1 C 55 % 1024,0 hPa 0,0 l/m 0 min 0 min 370 W/m 9,7 km/h (2 Bft) 97,87 %
01.05.2022 12:56 15,0 C 16,7 C 11,1 C 55 % 1024,0 hPa 0,0 l/m 0 min 0 min 376 W/m 3,2 km/h (1 Bft) 97,87 %
01.05.2022 12:58 15,0 C 16,1 C 11,1 C 55 % 1024,0 hPa 0,0 l/m 0 min 0 min 383 W/m 6,4 km/h (2 Bft) 95,74 %
01.05.2022 13:00 15,1 C 16,1 C 11,1 C 54 % 1024,0 hPa 0,0 l/m 0 min 0 min 385 W/m 6,4 km/h (2 Bft) 97,87 %
01.05.2022 13:02 15,1 C 16,1 C 11,1 C 55 % 1024,0 hPa 0,0 l/m 0 min 0 min 382 W/m 6,4 km/h (2 Bft) 97,87 %
01.05.2022 13:04 15,1 C 16,7 C 11,7 C 57 % 1023,9 hPa 0,0 l/m 0 min 0 min 376 W/m 9,7 km/h (2 Bft) 97,83 %
01.05.2022 13:06 15,1 C 16,1 C 11,1 C 55 % 1023,9 hPa 0,0 l/m 0 min 0 min 373 W/m 9,7 km/h (2 Bft) 97,87 %
01.05.2022 13:08 15,1 C 16,1 C 11,1 C 56 % 1023,9 hPa 0,0 l/m 0 min 0 min 374 W/m 9,7 km/h (2 Bft) 97,87 %
01.05.2022 13:10 15,1 C 16,1 C 11,1 C 55 % 1023,9 hPa 0,0 l/m 0 min 0 min 380 W/m 9,7 km/h (2 Bft) 91,49 %
01.05.2022 13:12 15,1 C 16,1 C 11,1 C 56 % 1023,9 hPa 0,0 l/m 2 min 0 min 399 W/m 9,7 km/h (2 Bft) 97,87 %
01.05.2022 13:14 15,1 C 16,1 C 11,1 C 56 % 1023,9 hPa 0,0 l/m 2 min 0 min 412 W/m 9,7 km/h (2 Bft) 93,62 %
01.05.2022 13:16 15,1 C 16,7 C 11,7 C 56 % 1023,8 hPa 0,0 l/m 2 min 0 min 415 W/m 6,4 km/h (2 Bft) 97,83 %
01.05.2022 13:18 15,1 C 16,7 C 11,7 C 56 % 1023,8 hPa 0,0 l/m 2 min 0 min 420 W/m 6,4 km/h (2 Bft) 97,87 %
01.05.2022 13:20 15,2 C 16,7 C 11,7 C 57 % 1023,8 hPa 0,0 l/m 2 min 0 min 435 W/m 6,4 km/h (2 Bft) 97,87 %
01.05.2022 13:22 15,2 C 17,2 C 11,7 C 56 % 1023,8 hPa 0,0 l/m 2 min 0 min 442 W/m 6,4 km/h (2 Bft) 95,74 %
01.05.2022 13:24 15,2 C 17,2 C 11,7 C 56 % 1023,8 hPa 0,0 l/m 2 min 0 min 419 W/m 6,4 km/h (2 Bft) 97,87 %
01.05.2022 13:26 15,2 C 16,7 C 11,7 C 57 % 1023,8 hPa 0,0 l/m 2 min 0 min 395 W/m 6,4 km/h (2 Bft) 97,87 %
01.05.2022 13:28 15,2 C 16,7 C 11,7 C 56 % 1023,8 hPa 0,0 l/m 0 min 0 min 375 W/m 12,9 km/h (3 Bft) 93,48 %
01.05.2022 13:30 15,1 C 16,7 C 11,7 C 57 % 1023,8 hPa 0,0 l/m 0 min 0 min 373 W/m 9,7 km/h (2 Bft) 95,74 %
01.05.2022 13:32 15,1 C 16,7 C 11,7 C 57 % 1023,7 hPa 0,0 l/m 0 min 0 min 373 W/m 6,4 km/h (2 Bft) 95,74 %
01.05.2022 13:34 15,1 C 16,7 C 11,7 C 57 % 1023,7 hPa 0,0 l/m 0 min 0 min 364 W/m 3,2 km/h (1 Bft) 95,74 %
01.05.2022 13:36 15,2 C 16,7 C 11,7 C 56 % 1023,7 hPa 0,0 l/m 0 min 0 min 356 W/m 6,4 km/h (2 Bft) 100,00 %
01.05.2022 13:38 15,2 C 16,7 C 11,7 C 57 % 1023,7 hPa 0,0 l/m 0 min 0 min 362 W/m 12,9 km/h (3 Bft) 95,74 %
01.05.2022 13:40 15,2 C 16,7 C 11,7 C 56 % 1023,7 hPa 0,0 l/m 0 min 0 min 378 W/m 9,7 km/h (2 Bft) 100,00 %
01.05.2022 13:42 15,2 C 16,1 C 11,1 C 55 % 1023,7 hPa 0,0 l/m 2 min 0 min 395 W/m 12,9 km/h (3 Bft) 100,00 %
01.05.2022 13:44 15,1 C 16,1 C 11,7 C 56 % 1023,6 hPa 0,0 l/m 2 min 0 min 412 W/m 9,7 km/h (2 Bft) 100,00 %
01.05.2022 13:46 15,1 C 16,7 C 11,7 C 56 % 1023,7 hPa 0,0 l/m 2 min 0 min 443 W/m 6,4 km/h (2 Bft) 100,00 %
01.05.2022 13:48 15,2 C 17,2 C 11,7 C 57 % 1023,5 hPa 0,0 l/m 2 min 0 min 507 W/m 6,4 km/h (2 Bft) 95,74 %
01.05.2022 13:50 15,3 C 17,8 C 12,2 C 58 % 1023,5 hPa 0,0 l/m 2 min 0 min 515 W/m 6,4 km/h (2 Bft) 97,87 %
01.05.2022 13:52 15,4 C 18,3 C 12,8 C 58 % 1023,5 hPa 0,0 l/m 2 min 0 min 496 W/m 6,4 km/h (2 Bft) 97,83 %
01.05.2022 13:54 15,6 C 18,3 C 12,8 C 56 % 1023,5 hPa 0,0 l/m 2 min 0 min 500 W/m 9,7 km/h (2 Bft) 95,74 %
01.05.2022 13:56 15,7 C 18,3 C 12,8 C 56 % 1023,4 hPa 0,0 l/m 2 min 0 min 522 W/m 9,7 km/h (2 Bft) 97,87 %
01.05.2022 13:58 15,7 C 18,3 C 12,2 C 54 % 1023,4 hPa 0,0 l/m 2 min 0 min 538 W/m 9,7 km/h (2 Bft) 97,87 %
01.05.2022 14:00 15,7 C 18,3 C 12,2 C 54 % 1023,4 hPa 0,0 l/m 2 min 0 min 478 W/m 6,4 km/h (2 Bft) 97,87 %
01.05.2022 14:02 15,7 C 17,2 C 11,7 C 54 % 1023,4 hPa 0,0 l/m 2 min 0 min 412 W/m 16,1 km/h (3 Bft) 97,87 %
01.05.2022 14:04 15,6 C 16,7 C 11,7 C 55 % 1023,5 hPa 0,0 l/m 0 min 0 min 391 W/m 12,9 km/h (3 Bft) 97,83 %
01.05.2022 14:06 15,6 C 17,2 C 11,7 C 56 % 1023,3 hPa 0,0 l/m 0 min 0 min 370 W/m 12,9 km/h (3 Bft) 97,87 %
01.05.2022 14:08 15,5 C 16,7 C 11,7 C 55 % 1023,4 hPa 0,0 l/m 0 min 0 min 351 W/m 16,1 km/h (3 Bft) 97,87 %
01.05.2022 14:10 15,5 C 16,7 C 11,7 C 56 % 1023,3 hPa 0,0 l/m 0 min 0 min 345 W/m 16,1 km/h (3 Bft) 97,87 %
01.05.2022 14:12 15,4 C 16,7 C 11,7 C 55 % 1023,3 hPa 0,0 l/m 0 min 0 min 345 W/m 6,4 km/h (2 Bft) 97,87 %
01.05.2022 14:14 15,4 C 16,7 C 11,7 C 55 % 1023,4 hPa 0,0 l/m 0 min 0 min 367 W/m 9,7 km/h (2 Bft) 95,65 %
01.05.2022 14:16 15,4 C 17,2 C 11,7 C 56 % 1023,3 hPa 0,0 l/m 2 min 0 min 462 W/m 6,4 km/h (2 Bft) 95,74 %
01.05.2022 14:18 15,4 C 17,2 C 11,7 C 57 % 1023,3 hPa 0,0 l/m 2 min 0 min 503 W/m 12,9 km/h (3 Bft) 97,87 %
01.05.2022 14:20 15,4 C 17,2 C 11,7 C 55 % 1023,3 hPa 0,0 l/m 2 min 0 min 522 W/m 6,4 km/h (2 Bft) 97,87 %
01.05.2022 14:22 15,4 C 18,3 C 11,7 C 55 % 1023,2 hPa 0,0 l/m 2 min 0 min 573 W/m 6,4 km/h (2 Bft) 95,74 %
01.05.2022 14:24 15,4 C 17,8 C 11,7 C 55 % 1023,2 hPa 0,0 l/m 2 min 0 min 609 W/m 6,4 km/h (2 Bft) 93,62 %
01.05.2022 14:26 15,6 C 18,3 C 11,7 C 56 % 1023,2 hPa 0,0 l/m 2 min 0 min 640 W/m 9,7 km/h (2 Bft) 95,65 %
01.05.2022 14:28 15,6 C 18,3 C 11,7 C 56 % 1023,2 hPa 0,0 l/m 2 min 0 min 681 W/m 9,7 km/h (2 Bft) 95,74 %
01.05.2022 14:30 15,7 C 18,9 C 11,7 C 55 % 1023,1 hPa 0,0 l/m 2 min 0 min 767 W/m 12,9 km/h (3 Bft) 95,74 %
01.05.2022 14:32 15,8 C 18,9 C 12,2 C 54 % 1023,1 hPa 0,0 l/m 2 min 0 min 829 W/m 22,5 km/h (4 Bft) 95,74 %
01.05.2022 14:34 15,9 C 20,0 C 12,2 C 55 % 1023,1 hPa 0,0 l/m 2 min 0 min 851 W/m 9,7 km/h (2 Bft) 96,36 %
01.05.2022 14:36 16,1 C 20,6 C 12,8 C 55 % 1023,1 hPa 0,0 l/m 2 min 0 min 823 W/m 16,1 km/h (3 Bft) 95,74 %
01.05.2022 14:38 16,3 C 21,1 C 12,8 C 55 % 1023,1 hPa 0,0 l/m 2 min 0 min 845 W/m 9,7 km/h (2 Bft) 95,74 %
01.05.2022 14:40 16,4 C 21,1 C 12,8 C 54 % 1023,1 hPa 0,0 l/m 2 min 0 min 738 W/m 9,7 km/h (2 Bft) 91,49 %
01.05.2022 14:42 16,5 C 21,1 C 12,8 C 54 % 1023,1 hPa 0,0 l/m 2 min 0 min 623 W/m 9,7 km/h (2 Bft) 95,65 %
01.05.2022 14:44 16,6 C 19,4 C 12,8 C 53 % 1023,0 hPa 0,0 l/m 2 min 0 min 603 W/m 12,9 km/h (3 Bft) 95,74 %
01.05.2022 14:46 16,4 C 18,3 C 12,2 C 52 % 1023,0 hPa 0,0 l/m 2 min 0 min 589 W/m 22,5 km/h (4 Bft) 97,87 %
01.05.2022 14:48 16,3 C 18,3 C 12,2 C 53 % 1023,0 hPa 0,0 l/m 2 min 0 min 470 W/m 12,9 km/h (3 Bft) 95,74 %
01.05.2022 14:50 16,3 C 17,8 C 12,2 C 53 % 1023,0 hPa 0,0 l/m 2 min 0 min 585 W/m 12,9 km/h (3 Bft) 93,62 %
01.05.2022 14:52 16,3 C 18,9 C 12,2 C 54 % 1023,0 hPa 0,0 l/m 2 min 0 min 672 W/m 9,7 km/h (2 Bft) 93,62 %
01.05.2022 14:54 16,3 C 18,9 C 11,7 C 52 % 1022,9 hPa 0,0 l/m 2 min 0 min 653 W/m 9,7 km/h (2 Bft) 95,65 %
01.05.2022 14:56 16,2 C 19,4 C 12,2 C 53 % 1023,0 hPa 0,0 l/m 2 min 0 min 673 W/m 6,4 km/h (2 Bft) 97,87 %
01.05.2022 14:58 16,3 C 20,0 C 12,2 C 55 % 1023,0 hPa 0,0 l/m 2 min 0 min 670 W/m 12,9 km/h (3 Bft) 97,87 %
01.05.2022 15:00 16,3 C 20,0 C 12,2 C 53 % 1023,0 hPa 0,0 l/m 2 min 0 min 612 W/m 12,9 km/h (3 Bft) 95,74 %
01.05.2022 15:02 16,2 C 18,9 C 12,2 C 54 % 1023,0 hPa 0,0 l/m 2 min 0 min 599 W/m 12,9 km/h (3 Bft) 97,87 %
01.05.2022 15:04 16,3 C 18,9 C 12,2 C 55 % 1022,9 hPa 0,0 l/m 2 min 0 min 639 W/m 12,9 km/h (3 Bft) 95,74 %
01.05.2022 15:06 16,4 C 18,3 C 12,2 C 54 % 1022,9 hPa 0,0 l/m 2 min 0 min 702 W/m 9,7 km/h (2 Bft) 97,83 %
01.05.2022 15:08 16,5 C 18,9 C 12,2 C 55 % 1022,9 hPa 0,0 l/m 2 min 0 min 733 W/m 16,1 km/h (3 Bft) 100,00 %
01.05.2022 15:10 16,6 C 18,9 C 12,2 C 53 % 1022,8 hPa 0,0 l/m 2 min 0 min 705 W/m 12,9 km/h (3 Bft) 100,00 %
01.05.2022 15:12 16,6 C 18,9 C 12,2 C 53 % 1022,8 hPa 0,0 l/m 2 min 0 min 638 W/m 6,4 km/h (2 Bft) 97,87 %
01.05.2022 15:14 16,6 C 18,3 C 12,2 C 53 % 1022,8 hPa 0,0 l/m 2 min 0 min 594 W/m 9,7 km/h (2 Bft) 100,00 %
01.05.2022 15:16 16,7 C 18,9 C 12,2 C 54 % 1022,8 hPa 0,0 l/m 2 min 0 min 621 W/m 12,9 km/h (3 Bft) 97,87 %
01.05.2022 15:18 16,8 C 18,9 C 12,2 C 54 % 1022,7 hPa 0,0 l/m 2 min 0 min 617 W/m 16,1 km/h (3 Bft) 95,65 %
01.05.2022 15:20 16,8 C 18,9 C 12,2 C 53 % 1022,7 hPa 0,0 l/m 2 min 0 min 599 W/m 9,7 km/h (2 Bft) 97,87 %
01.05.2022 15:22 16,8 C 18,9 C 12,8 C 54 % 1022,8 hPa 0,0 l/m 2 min 0 min 577 W/m 12,9 km/h (3 Bft) 100,00 %
01.05.2022 15:24 16,9 C 18,3 C 12,2 C 53 % 1022,8 hPa 0,0 l/m 2 min 0 min 576 W/m 12,9 km/h (3 Bft) 100,00 %
01.05.2022 15:26 16,8 C 18,3 C 12,2 C 51 % 1022,7 hPa 0,0 l/m 2 min 0 min 580 W/m 12,9 km/h (3 Bft) 100,00 %
01.05.2022 15:28 16,8 C 18,9 C 12,2 C 51 % 1022,8 hPa 0,0 l/m 2 min 0 min 567 W/m 16,1 km/h (3 Bft) 97,87 %
01.05.2022 15:30 16,7 C 18,3 C 11,7 C 51 % 1022,7 hPa 0,0 l/m 2 min 0 min 536 W/m 9,7 km/h (2 Bft) 95,65 %
01.05.2022 15:32 16,7 C 18,9 C 12,2 C 53 % 1022,7 hPa 0,0 l/m 2 min 0 min 526 W/m 6,4 km/h (2 Bft) 97,87 %
01.05.2022 15:34 16,7 C 18,9 C 12,2 C 52 % 1022,7 hPa 0,0 l/m 2 min 0 min 523 W/m 12,9 km/h (3 Bft) 97,87 %
01.05.2022 15:36 16,7 C 18,9 C 12,2 C 53 % 1022,7 hPa 0,0 l/m 2 min 0 min 506 W/m 12,9 km/h (3 Bft) 97,87 %
01.05.2022 15:38 16,6 C 18,3 C 12,2 C 53 % 1022,7 hPa 0,0 l/m 2 min 0 min 507 W/m 16,1 km/h (3 Bft) 97,87 %
01.05.2022 15:40 16,7 C 18,3 C 12,2 C 53 % 1022,6 hPa 0,0 l/m 2 min 0 min 503 W/m 3,2 km/h (1 Bft) 97,87 %
01.05.2022 15:42 16,7 C 18,3 C 12,2 C 53 % 1022,6 hPa 0,0 l/m 2 min 0 min 464 W/m 6,4 km/h (2 Bft) 97,83 %
01.05.2022 15:44 16,8 C 18,3 C 12,2 C 53 % 1022,6 hPa 0,0 l/m 2 min 0 min 470 W/m 6,4 km/h (2 Bft) 97,87 %
01.05.2022 15:46 16,8 C 18,3 C 12,2 C 52 % 1022,6 hPa 0,0 l/m 2 min 0 min 478 W/m 3,2 km/h (1 Bft) 95,74 %
01.05.2022 15:48 16,8 C 18,3 C 12,2 C 52 % 1022,6 hPa 0,0 l/m 2 min 0 min 511 W/m 3,2 km/h (1 Bft) 95,74 %
01.05.2022 15:50 16,8 C 18,9 C 12,2 C 53 % 1022,6 hPa 0,0 l/m 2 min 0 min 541 W/m 9,7 km/h (2 Bft) 97,87 %
01.05.2022 15:52 16,8 C 18,3 C 12,2 C 53 % 1022,5 hPa 0,0 l/m 2 min 0 min 491 W/m 16,1 km/h (3 Bft) 97,83 %
01.05.2022 15:54 16,8 C 18,3 C 12,2 C 53 % 1022,5 hPa 0,0 l/m 2 min 0 min 491 W/m 12,9 km/h (3 Bft) 97,87 %
01.05.2022 15:56 16,8 C 18,3 C 12,2 C 53 % 1022,5 hPa 0,0 l/m 2 min 0 min 430 W/m 12,9 km/h (3 Bft) 97,87 %
01.05.2022 15:58 16,8 C 18,3 C 12,2 C 52 % 1022,5 hPa 0,0 l/m 2 min 0 min 448 W/m 9,7 km/h (2 Bft) 97,87 %
01.05.2022 16:00 16,8 C 18,9 C 12,2 C 53 % 1022,5 hPa 0,0 l/m 2 min 0 min 489 W/m 6,4 km/h (2 Bft) 100,00 %
01.05.2022 16:02 16,8 C 18,9 C 12,2 C 52 % 1022,5 hPa 0,0 l/m 2 min 0 min 697 W/m 6,4 km/h (2 Bft) 97,87 %
01.05.2022 16:04 16,9 C 20,0 C 12,8 C 54 % 1022,5 hPa 0,0 l/m 2 min 0 min 655 W/m 6,4 km/h (2 Bft) 95,74 %
01.05.2022 16:06 16,9 C 20,0 C 12,8 C 52 % 1022,4 hPa 0,0 l/m 2 min 0 min 669 W/m 6,4 km/h (2 Bft) 95,65 %
01.05.2022 16:08 17,0 C 19,4 C 12,8 C 51 % 1022,4 hPa 0,0 l/m 2 min 0 min 715 W/m 12,9 km/h (3 Bft) 100,00 %
01.05.2022 16:10 17,0 C 20,0 C 12,8 C 52 % 1022,4 hPa 0,0 l/m 2 min 0 min 585 W/m 9,7 km/h (2 Bft) 97,87 %
01.05.2022 16:12 17,0 C 19,4 C 12,8 C 52 % 1022,4 hPa 0,0 l/m 2 min 0 min 519 W/m 6,4 km/h (2 Bft) 100,00 %
01.05.2022 16:14 17,1 C 19,4 C 12,8 C 53 % 1022,4 hPa 0,0 l/m 2 min 0 min 525 W/m 12,9 km/h (3 Bft) 100,00 %
01.05.2022 16:16 17,1 C 18,9 C 12,8 C 51 % 1022,4 hPa 0,0 l/m 2 min 0 min 504 W/m 12,9 km/h (3 Bft) 100,00 %
01.05.2022 16:18 17,1 C 18,3 C 12,2 C 52 % 1022,4 hPa 0,0 l/m 2 min 0 min 438 W/m 12,9 km/h (3 Bft) 100,00 %
01.05.2022 16:20 17,0 C 17,8 C 12,2 C 52 % 1022,4 hPa 0,0 l/m 2 min 0 min 401 W/m 9,7 km/h (2 Bft) 97,87 %
01.05.2022 16:22 17,0 C 17,8 C 12,2 C 52 % 1022,3 hPa 0,0 l/m 2 min 0 min 351 W/m 6,4 km/h (2 Bft) 100,00 %
01.05.2022 16:24 16,8 C 17,8 C 12,2 C 52 % 1022,3 hPa 0,0 l/m 0 min 0 min 308 W/m 9,7 km/h (2 Bft) 100,00 %
01.05.2022 16:26 16,8 C 17,8 C 12,2 C 52 % 1022,2 hPa 0,0 l/m 0 min 0 min 294 W/m 3,2 km/h (1 Bft) 100,00 %
01.05.2022 16:28 16,7 C 17,2 C 12,2 C 53 % 1022,3 hPa 0,0 l/m 0 min 0 min 288 W/m 9,7 km/h (2 Bft) 97,83 %
01.05.2022 16:30 16,7 C 17,2 C 12,2 C 54 % 1022,3 hPa 0,0 l/m 0 min 0 min 295 W/m 6,4 km/h (2 Bft) 100,00 %
01.05.2022 16:32 16,7 C 17,8 C 12,2 C 54 % 1022,2 hPa 0,0 l/m 0 min 0 min 298 W/m 6,4 km/h (2 Bft) 100,00 %
01.05.2022 16:34 16,7 C 17,2 C 12,2 C 52 % 1022,2 hPa 0,0 l/m 0 min 0 min 283 W/m 12,9 km/h (3 Bft) 100,00 %
01.05.2022 16:36 16,6 C 17,2 C 12,2 C 53 % 1022,2 hPa 0,0 l/m 0 min 0 min 273 W/m 6,4 km/h (2 Bft) 97,87 %
01.05.2022 16:38 16,6 C 17,2 C 12,2 C 53 % 1022,2 hPa 0,0 l/m 0 min 0 min 275 W/m 6,4 km/h (2 Bft) 97,87 %
01.05.2022 16:40 16,5 C 16,7 C 11,7 C 53 % 1022,1 hPa 0,0 l/m 0 min 0 min 282 W/m 3,2 km/h (1 Bft) 97,83 %
01.05.2022 16:42 16,4 C 16,7 C 11,7 C 53 % 1022,2 hPa 0,0 l/m 0 min 0 min 293 W/m 9,7 km/h (2 Bft) 97,87 %
01.05.2022 16:44 16,4 C 16,7 C 11,7 C 53 % 1022,1 hPa 0,0 l/m 2 min 0 min 320 W/m 12,9 km/h (3 Bft) 97,87 %
01.05.2022 16:46 16,4 C 16,7 C 11,7 C 53 % 1022,1 hPa 0,0 l/m 2 min 0 min 324 W/m 6,4 km/h (2 Bft) 100,00 %
01.05.2022 16:48 16,4 C 16,1 C 11,7 C 53 % 1022,1 hPa 0,0 l/m 2 min 0 min 320 W/m 6,4 km/h (2 Bft) 97,87 %
01.05.2022 16:50 16,3 C 16,1 C 11,7 C 52 % 1022,1 hPa 0,0 l/m 2 min 0 min 310 W/m 12,9 km/h (3 Bft) 97,87 %
01.05.2022 16:52 16,3 C 16,1 C 11,7 C 53 % 1022,1 hPa 0,0 l/m 2 min 0 min 314 W/m 6,4 km/h (2 Bft) 97,83 %
01.05.2022 16:54 16,3 C 16,7 C 12,2 C 54 % 1022,0 hPa 0,0 l/m 2 min 0 min 314 W/m 6,4 km/h (2 Bft) 97,87 %
01.05.2022 16:56 16,3 C 16,7 C 11,7 C 54 % 1022,0 hPa 0,0 l/m 2 min 0 min 308 W/m 3,2 km/h (1 Bft) 97,87 %
01.05.2022 16:58 16,3 C 16,7 C 12,2 C 53 % 1022,0 hPa 0,0 l/m 2 min 0 min 293 W/m 6,4 km/h (2 Bft) 97,87 %
01.05.2022 17:00 16,3 C 16,7 C 12,2 C 54 % 1022,0 hPa 0,0 l/m 0 min 0 min 280 W/m 9,7 km/h (2 Bft) 97,87 %
01.05.2022 17:02 16,3 C 16,7 C 12,2 C 54 % 1022,0 hPa 0,0 l/m 0 min 0 min 272 W/m 12,9 km/h (3 Bft) 95,74 %
01.05.2022 17:04 16,3 C 16,7 C 12,2 C 54 % 1022,0 hPa 0,0 l/m 0 min 0 min 265 W/m 6,4 km/h (2 Bft) 97,83 %
01.05.2022 17:06 16,3 C 16,7 C 12,2 C 54 % 1022,0 hPa 0,0 l/m 0 min 0 min 260 W/m 6,4 km/h (2 Bft) 97,87 %
01.05.2022 17:08 16,3 C 16,7 C 12,2 C 54 % 1022,0 hPa 0,0 l/m 0 min 0 min 254 W/m 6,4 km/h (2 Bft) 93,62 %
01.05.2022 17:10 16,3 C 16,7 C 12,2 C 55 % 1022,0 hPa 0,0 l/m 0 min 0 min 245 W/m 6,4 km/h (2 Bft) 95,74 %
01.05.2022 17:12 16,3 C 16,7 C 12,2 C 54 % 1022,0 hPa 0,0 l/m 0 min 0 min 236 W/m 9,7 km/h (2 Bft) 97,87 %
01.05.2022 17:14 16,3 C 16,7 C 12,2 C 54 % 1022,0 hPa 0,0 l/m 0 min 0 min 234 W/m 6,4 km/h (2 Bft) 97,87 %
01.05.2022 17:16 16,3 C 16,7 C 11,7 C 53 % 1022,0 hPa 0,0 l/m 0 min 0 min 240 W/m 9,7 km/h (2 Bft) 97,83 %
01.05.2022 17:18 16,3 C 16,7 C 12,2 C 54 % 1022,0 hPa 0,0 l/m 0 min 0 min 252 W/m 9,7 km/h (2 Bft) 100,00 %
01.05.2022 17:20 16,2 C 16,7 C 12,2 C 53 % 1022,0 hPa 0,0 l/m 2 min 0 min 264 W/m 6,4 km/h (2 Bft) 97,87 %
01.05.2022 17:22 16,2 C 16,7 C 12,2 C 53 % 1022,0 hPa 0,0 l/m 2 min 0 min 290 W/m 9,7 km/h (2 Bft) 100,00 %
01.05.2022 17:24 16,1 C 16,7 C 11,7 C 53 % 1022,0 hPa 0,0 l/m 2 min 0 min 270 W/m 6,4 km/h (2 Bft) 100,00 %
01.05.2022 17:26 16,1 C 16,7 C 12,2 C 54 % 1022,0 hPa 0,0 l/m 2 min 0 min 269 W/m 6,4 km/h (2 Bft) 97,87 %
01.05.2022 17:28 16,1 C 16,7 C 12,2 C 56 % 1022,0 hPa 0,0 l/m 2 min 0 min 259 W/m 6,4 km/h (2 Bft) 95,65 %
01.05.2022 17:30 16,2 C 16,7 C 12,2 C 56 % 1022,0 hPa 0,0 l/m 0 min 0 min 243 W/m 9,7 km/h (2 Bft) 97,87 %
01.05.2022 17:32 16,1 C 16,7 C 12,2 C 55 % 1022,0 hPa 0,0 l/m 0 min 0 min 228 W/m 6,4 km/h (2 Bft) 97,87 %
01.05.2022 17:34 16,1 C 16,7 C 12,2 C 56 % 1022,0 hPa 0,0 l/m 0 min 0 min 215 W/m 6,4 km/h (2 Bft) 97,87 %
01.05.2022 17:36 16,1 C 16,1 C 11,7 C 56 % 1021,9 hPa 0,0 l/m 0 min 0 min 210 W/m 6,4 km/h (2 Bft) 93,62 %
01.05.2022 17:38 16,0 C 16,1 C 11,7 C 57 % 1022,0 hPa 0,0 l/m 0 min 0 min 206 W/m 9,7 km/h (2 Bft) 95,74 %
01.05.2022 17:40 16,0 C 16,1 C 12,2 C 58 % 1022,0 hPa 0,0 l/m 0 min 0 min 201 W/m 16,1 km/h (3 Bft) 97,83 %
01.05.2022 17:42 15,9 C 16,1 C 11,7 C 57 % 1022,0 hPa 0,0 l/m 0 min 0 min 191 W/m 12,9 km/h (3 Bft) 97,87 %
01.05.2022 17:44 15,8 C 16,1 C 11,7 C 57 % 1022,0 hPa 0,0 l/m 0 min 0 min 175 W/m 6,4 km/h (2 Bft) 95,74 %
01.05.2022 17:46 15,8 C 16,1 C 11,7 C 57 % 1022,0 hPa 0,0 l/m 0 min 0 min 155 W/m 6,4 km/h (2 Bft) 97,87 %
01.05.2022 17:48 15,8 C 16,1 C 11,7 C 58 % 1022,0 hPa 0,0 l/m 0 min 0 min 137 W/m 6,4 km/h (2 Bft) 97,87 %
01.05.2022 17:50 15,7 C 15,6 C 11,7 C 56 % 1021,9 hPa 0,0 l/m 0 min 0 min 123 W/m 6,4 km/h (2 Bft) 97,87 %
01.05.2022 17:52 15,6 C 15,6 C 11,1 C 56 % 1022,0 hPa 0,0 l/m 0 min 0 min 117 W/m 3,2 km/h (1 Bft) 97,83 %
01.05.2022 17:54 15,6 C 15,6 C 11,1 C 57 % 1021,9 hPa 0,0 l/m 0 min 0 min 113 W/m 9,7 km/h (2 Bft) 97,87 %
01.05.2022 17:56 15,6 C 15,6 C 11,1 C 58 % 1022,0 hPa 0,0 l/m 0 min 0 min 111 W/m 3,2 km/h (1 Bft) 97,87 %
01.05.2022 17:58 15,5 C 15,6 C 11,1 C 58 % 1021,9 hPa 0,0 l/m 0 min 0 min 111 W/m 3,2 km/h (1 Bft) 97,87 %
01.05.2022 18:00 15,4 C 15,6 C 11,1 C 58 % 1021,9 hPa 0,0 l/m 0 min 0 min 114 W/m 6,4 km/h (2 Bft) 95,74 %
01.05.2022 18:02 15,4 C 15,6 C 11,1 C 58 % 1021,9 hPa 0,0 l/m 0 min 0 min 118 W/m 6,4 km/h (2 Bft) 95,74 %
01.05.2022 18:04 15,4 C 15,0 C 11,1 C 57 % 1021,9 hPa 0,0 l/m 0 min 0 min 125 W/m 6,4 km/h (2 Bft) 95,65 %
01.05.2022 18:08 15,3 C 15,6 C 11,1 C 59 % 1021,9 hPa 0,0 l/m 0 min 0 min 137 W/m 6,4 km/h (2 Bft) 94,68 %
01.05.2022 18:10 15,3 C 15,6 C 11,1 C 58 % 1021,8 hPa 0,0 l/m 0 min 0 min 151 W/m 9,7 km/h (2 Bft) 95,74 %
01.05.2022 18:12 15,3 C 15,6 C 11,1 C 58 % 1021,8 hPa 0,0 l/m 0 min 0 min 157 W/m 3,2 km/h (1 Bft) 95,74 %
01.05.2022 18:14 15,3 C 15,6 C 11,1 C 57 % 1021,8 hPa 0,0 l/m 0 min 0 min 160 W/m 3,2 km/h (1 Bft) 95,74 %
01.05.2022 18:16 15,3 C 15,6 C 11,1 C 58 % 1021,8 hPa 0,0 l/m 0 min 0 min 162 W/m 6,4 km/h (2 Bft) 95,65 %
01.05.2022 18:18 15,3 C 15,6 C 11,1 C 57 % 1021,9 hPa 0,0 l/m 0 min 0 min 161 W/m 9,7 km/h (2 Bft) 97,87 %
01.05.2022 18:20 15,2 C 15,6 C 11,1 C 56 % 1021,9 hPa 0,0 l/m 0 min 0 min 162 W/m 6,4 km/h (2 Bft) 97,87 %
01.05.2022 18:22 15,2 C 15,6 C 11,1 C 57 % 1021,8 hPa 0,0 l/m 0 min 0 min 162 W/m 3,2 km/h (1 Bft) 95,74 %
01.05.2022 18:24 15,2 C 15,6 C 11,1 C 57 % 1021,8 hPa 0,0 l/m 0 min 0 min 160 W/m 3,2 km/h (1 Bft) 95,74 %
01.05.2022 18:26 15,2 C 15,6 C 11,1 C 57 % 1021,8 hPa 0,0 l/m 0 min 0 min 156 W/m 3,2 km/h (1 Bft) 97,87 %
01.05.2022 18:28 15,2 C 15,6 C 11,1 C 57 % 1021,8 hPa 0,0 l/m 0 min 0 min 154 W/m 3,2 km/h (1 Bft) 97,83 %
01.05.2022 18:30 15,2 C 15,6 C 11,1 C 57 % 1021,7 hPa 0,0 l/m 0 min 0 min 149 W/m 3,2 km/h (1 Bft) 97,87 %
01.05.2022 18:32 15,2 C 15,6 C 11,1 C 57 % 1021,7 hPa 0,0 l/m 0 min 0 min 147 W/m 9,7 km/h (2 Bft) 95,74 %
01.05.2022 18:34 15,2 C 15,6 C 11,1 C 58 % 1021,7 hPa 0,0 l/m 0 min 0 min 145 W/m 6,4 km/h (2 Bft) 97,87 %
01.05.2022 18:36 15,2 C 15,0 C 11,1 C 57 % 1021,7 hPa 0,0 l/m 0 min 0 min 147 W/m 12,9 km/h (3 Bft) 97,87 %
01.05.2022 18:38 15,2 C 15,0 C 11,1 C 57 % 1021,7 hPa 0,0 l/m 0 min 0 min 148 W/m 6,4 km/h (2 Bft) 97,87 %
01.05.2022 18:40 15,2 C 15,0 C 11,1 C 57 % 1021,6 hPa 0,0 l/m 0 min 0 min 149 W/m 6,4 km/h (2 Bft) 93,48 %
01.05.2022 18:42 15,1 C 15,0 C 11,1 C 58 % 1021,6 hPa 0,0 l/m 0 min 0 min 153 W/m 9,7 km/h (2 Bft) 95,74 %
01.05.2022 18:44 15,1 C 15,0 C 11,1 C 57 % 1021,6 hPa 0,0 l/m 0 min 0 min 157 W/m 6,4 km/h (2 Bft) 97,87 %
01.05.2022 18:46 15,1 C 15,0 C 11,1 C 58 % 1021,6 hPa 0,0 l/m 2 min 0 min 165 W/m 6,4 km/h (2 Bft) 97,87 %
01.05.2022 18:48 15,1 C 15,6 C 11,1 C 59 % 1021,6 hPa 0,0 l/m 2 min 0 min 176 W/m 6,4 km/h (2 Bft) 97,87 %
01.05.2022 18:50 15,1 C 15,6 C 11,1 C 58 % 1021,6 hPa 0,0 l/m 2 min 0 min 184 W/m 3,2 km/h (1 Bft) 95,74 %
01.05.2022 18:52 15,1 C 15,6 C 11,1 C 58 % 1021,5 hPa 0,0 l/m 2 min 0 min 197 W/m 3,2 km/h (1 Bft) 95,65 %
01.05.2022 18:54 15,2 C 15,6 C 11,1 C 57 % 1021,5 hPa 0,0 l/m 2 min 0 min 207 W/m 3,2 km/h (1 Bft) 97,87 %
01.05.2022 18:56 15,2 C 15,6 C 11,1 C 57 % 1021,5 hPa 0,0 l/m 2 min 0 min 211 W/m 3,2 km/h (1 Bft) 97,87 %
01.05.2022 18:58 15,2 C 15,6 C 11,1 C 58 % 1021,4 hPa 0,0 l/m 2 min 0 min 223 W/m 3,2 km/h (1 Bft) 97,87 %
01.05.2022 19:00 15,2 C 16,1 C 11,1 C 59 % 1021,4 hPa 0,0 l/m 2 min 0 min 233 W/m 3,2 km/h (1 Bft) 95,74 %
01.05.2022 19:02 15,3 C 16,1 C 11,1 C 58 % 1021,3 hPa 0,0 l/m 2 min 0 min 229 W/m 9,7 km/h (2 Bft) 95,74 %
01.05.2022 19:04 15,3 C 16,1 C 11,1 C 59 % 1021,3 hPa 0,0 l/m 2 min 0 min 207 W/m 6,4 km/h (2 Bft) 97,83 %
01.05.2022 19:06 15,3 C 16,1 C 11,1 C 59 % 1021,3 hPa 0,0 l/m 2 min 0 min 184 W/m 3,2 km/h (1 Bft) 97,87 %
01.05.2022 19:08 15,4 C 16,1 C 11,1 C 59 % 1021,3 hPa 0,0 l/m 2 min 0 min 172 W/m 6,4 km/h (2 Bft) 97,87 %
01.05.2022 19:10 15,4 C 15,6 C 11,1 C 58 % 1021,3 hPa 0,0 l/m 2 min 0 min 171 W/m 6,4 km/h (2 Bft) 97,87 %
01.05.2022 19:12 15,4 C 15,6 C 11,1 C 58 % 1021,3 hPa 0,0 l/m 2 min 0 min 167 W/m 6,4 km/h (2 Bft) 97,87 %
01.05.2022 19:14 15,4 C 15,6 C 11,1 C 58 % 1021,3 hPa 0,0 l/m 2 min 0 min 165 W/m 6,4 km/h (2 Bft) 97,87 %
01.05.2022 19:16 15,3 C 15,6 C 11,1 C 59 % 1021,3 hPa 0,0 l/m 2 min 0 min 168 W/m 6,4 km/h (2 Bft) 97,83 %
01.05.2022 19:18 15,3 C 15,6 C 11,1 C 58 % 1021,3 hPa 0,0 l/m 2 min 0 min 165 W/m 9,7 km/h (2 Bft) 97,87 %
01.05.2022 19:20 15,3 C 15,6 C 11,1 C 59 % 1021,3 hPa 0,0 l/m 2 min 0 min 159 W/m 6,4 km/h (2 Bft) 100,00 %
01.05.2022 19:22 15,3 C 15,6 C 11,1 C 58 % 1021,4 hPa 0,0 l/m 2 min 0 min 152 W/m 6,4 km/h (2 Bft) 100,00 %
01.05.2022 19:24 15,3 C 15,6 C 11,1 C 58 % 1021,3 hPa 0,0 l/m 2 min 0 min 140 W/m 6,4 km/h (2 Bft) 100,00 %
01.05.2022 19:26 15,3 C 15,6 C 11,1 C 58 % 1021,4 hPa 0,0 l/m 2 min 0 min 126 W/m 6,4 km/h (2 Bft) 100,00 %
01.05.2022 19:28 15,3 C 15,6 C 11,1 C 58 % 1021,4 hPa 0,0 l/m 2 min 0 min 111 W/m 6,4 km/h (2 Bft) 100,00 %
01.05.2022 19:30 15,3 C 15,6 C 11,1 C 58 % 1021,4 hPa 0,0 l/m 0 min 0 min 99 W/m 3,2 km/h (1 Bft) 97,87 %
01.05.2022 19:32 15,3 C 15,0 C 11,1 C 59 % 1021,4 hPa 0,0 l/m 0 min 0 min 90 W/m 9,7 km/h (2 Bft) 100,00 %
01.05.2022 19:34 15,2 C 15,0 C 10,6 C 58 % 1021,4 hPa 0,0 l/m 0 min 0 min 82 W/m 9,7 km/h (2 Bft) 100,00 %
01.05.2022 19:36 15,2 C 15,0 C 10,6 C 58 % 1021,4 hPa 0,0 l/m 0 min 0 min 75 W/m 12,9 km/h (3 Bft) 100,00 %
01.05.2022 19:38 15,1 C 14,4 C 10,6 C 59 % 1021,4 hPa 0,0 l/m 0 min 0 min 69 W/m 6,4 km/h (2 Bft) 100,00 %
01.05.2022 19:40 15,1 C 14,4 C 10,6 C 59 % 1021,4 hPa 0,0 l/m 0 min 0 min 65 W/m 6,4 km/h (2 Bft) 100,00 %
01.05.2022 19:42 15,0 C 14,4 C 10,6 C 59 % 1021,5 hPa 0,0 l/m 0 min 0 min 60 W/m 6,4 km/h (2 Bft) 100,00 %
01.05.2022 19:44 14,9 C 14,4 C 10,6 C 59 % 1021,4 hPa 0,0 l/m 0 min 0 min 55 W/m 6,4 km/h (2 Bft) 100,00 %
01.05.2022 19:46 14,9 C 13,9 C 10,6 C 58 % 1021,5 hPa 0,0 l/m 0 min 0 min 53 W/m 12,9 km/h (3 Bft) 97,87 %
01.05.2022 19:48 14,8 C 13,9 C 10,6 C 59 % 1021,5 hPa 0,0 l/m 0 min 0 min 51 W/m 9,7 km/h (2 Bft) 97,87 %
01.05.2022 19:50 14,8 C 13,9 C 10,0 C 59 % 1021,5 hPa 0,0 l/m 0 min 0 min 51 W/m 6,4 km/h (2 Bft) 100,00 %
01.05.2022 19:52 14,7 C 13,9 C 10,0 C 59 % 1021,5 hPa 0,0 l/m 0 min 0 min 50 W/m 3,2 km/h (1 Bft) 100,00 %
01.05.2022 19:54 14,7 C 13,9 C 10,0 C 59 % 1021,5 hPa 0,0 l/m 0 min 0 min 51 W/m 6,4 km/h (2 Bft) 100,00 %
01.05.2022 19:56 14,6 C 13,9 C 10,0 C 59 % 1021,5 hPa 0,0 l/m 0 min 0 min 51 W/m 6,4 km/h (2 Bft) 97,87 %
01.05.2022 19:58 14,6 C 13,9 C 10,0 C 60 % 1021,5 hPa 0,0 l/m 0 min 0 min 50 W/m 9,7 km/h (2 Bft) 95,74 %
01.05.2022 20:00 14,6 C 13,9 C 10,0 C 60 % 1021,5 hPa 0,0 l/m 0 min 0 min 49 W/m 6,4 km/h (2 Bft) 100,00 %
01.05.2022 20:02 14,5 C 13,9 C 10,0 C 60 % 1021,5 hPa 0,0 l/m 0 min 0 min 49 W/m 6,4 km/h (2 Bft) 100,00 %
01.05.2022 20:04 14,4 C 13,9 C 10,0 C 60 % 1021,5 hPa 0,0 l/m 0 min 0 min 49 W/m 12,9 km/h (3 Bft) 100,00 %
01.05.2022 20:06 14,4 C 13,9 C 10,0 C 60 % 1021,5 hPa 0,0 l/m 0 min 0 min 47 W/m 3,2 km/h (1 Bft) 97,87 %
01.05.2022 20:08 14,4 C 13,9 C 10,0 C 60 % 1021,5 hPa 0,0 l/m 0 min 0 min 47 W/m 3,2 km/h (1 Bft) 100,00 %
01.05.2022 20:10 14,4 C 13,9 C 10,0 C 60 % 1021,5 hPa 0,0 l/m 0 min 0 min 46 W/m 3,2 km/h (1 Bft) 100,00 %
01.05.2022 20:12 14,3 C 13,9 C 10,0 C 60 % 1021,5 hPa 0,0 l/m 0 min 0 min 46 W/m 6,4 km/h (2 Bft) 100,00 %
01.05.2022 20:14 14,3 C 13,9 C 10,0 C 61 % 1021,5 hPa 0,0 l/m 2 min 0 min 46 W/m 6,4 km/h (2 Bft) 97,87 %
01.05.2022 20:16 14,3 C 13,9 C 10,0 C 60 % 1021,6 hPa 0,0 l/m 2 min 0 min 46 W/m 3,2 km/h (1 Bft) 97,83 %
01.05.2022 20:18 14,3 C 13,9 C 10,0 C 60 % 1021,6 hPa 0,0 l/m 2 min 0 min 46 W/m 3,2 km/h (1 Bft) 97,87 %
01.05.2022 20:20 14,3 C 13,9 C 10,0 C 61 % 1021,6 hPa 0,0 l/m 2 min 0 min 47 W/m 3,2 km/h (1 Bft) 97,87 %
01.05.2022 20:22 14,3 C 13,9 C 10,0 C 61 % 1021,6 hPa 0,0 l/m 2 min 0 min 45 W/m 6,4 km/h (2 Bft) 93,62 %
01.05.2022 20:24 14,3 C 13,3 C 10,0 C 61 % 1021,5 hPa 0,0 l/m 2 min 0 min 42 W/m 3,2 km/h (1 Bft) 97,87 %
01.05.2022 20:26 14,3 C 13,3 C 10,0 C 60 % 1021,5 hPa 0,0 l/m 2 min 0 min 38 W/m 6,4 km/h (2 Bft) 97,87 %
01.05.2022 20:28 14,3 C 13,3 C 9,4 C 60 % 1021,6 hPa 0,0 l/m 2 min 0 min 33 W/m 9,7 km/h (2 Bft) 100,00 %
01.05.2022 20:30 14,3 C 13,3 C 9,4 C 61 % 1021,6 hPa 0,0 l/m 2 min 0 min 30 W/m 6,4 km/h (2 Bft) 97,87 %
01.05.2022 20:32 14,3 C 13,3 C 9,4 C 61 % 1021,6 hPa 0,0 l/m 2 min 0 min 27 W/m 3,2 km/h (1 Bft) 97,87 %
01.05.2022 20:34 14,3 C 13,3 C 9,4 C 61 % 1021,6 hPa 0,0 l/m 2 min 0 min 25 W/m 3,2 km/h (1 Bft) 95,74 %
01.05.2022 20:36 14,2 C 13,3 C 9,4 C 62 % 1021,6 hPa 0,0 l/m 2 min 0 min 22 W/m 3,2 km/h (1 Bft) 97,87 %
01.05.2022 20:38 14,1 C 13,3 C 9,4 C 62 % 1021,6 hPa 0,0 l/m 2 min 0 min 21 W/m 3,2 km/h (1 Bft) 97,87 %
01.05.2022 20:40 14,1 C 13,3 C 9,4 C 62 % 1021,7 hPa 0,0 l/m 0 min 0 min 19 W/m 3,2 km/h (1 Bft) 97,83 %
01.05.2022 20:42 14,1 C 12,8 C 9,4 C 62 % 1021,6 hPa 0,0 l/m 0 min 0 min 16 W/m 0,0 km/h (0 Bft) 97,37 %
01.05.2022 20:44 14,1 C 12,8 C 9,4 C 62 % 1021,7 hPa 0,0 l/m 0 min 0 min 14 W/m 3,2 km/h (1 Bft) 93,75 %
01.05.2022 20:46 14,1 C 12,8 C 9,4 C 62 % 1021,7 hPa 0,0 l/m 0 min 0 min 14 W/m 0,0 km/h (0 Bft) 91,49 %
01.05.2022 20:48 14,0 C 12,8 C 9,4 C 62 % 1021,6 hPa 0,0 l/m 0 min 0 min 12 W/m 6,4 km/h (2 Bft) 94,44 %
01.05.2022 20:50 13,9 C 12,8 C 9,4 C 62 % 1021,7 hPa 0,0 l/m 0 min 0 min 9 W/m 3,2 km/h (1 Bft) 91,49 %
01.05.2022 20:52 13,9 C 12,8 C 9,4 C 62 % 1021,7 hPa 0,0 l/m 0 min 0 min 7 W/m 3,2 km/h (1 Bft) 91,30 %
01.05.2022 20:54 13,9 C 12,8 C 8,9 C 62 % 1021,7 hPa 0,0 l/m 0 min 0 min 7 W/m 6,4 km/h (2 Bft) 95,74 %
01.05.2022 20:56 13,8 C 12,8 C 8,9 C 63 % 1021,7 hPa 0,0 l/m 0 min 0 min 7 W/m 3,2 km/h (1 Bft) 95,74 %
01.05.2022 20:58 13,8 C 12,2 C 8,9 C 64 % 1021,7 hPa 0,0 l/m 0 min 0 min 5 W/m 3,2 km/h (1 Bft) 97,87 %
01.05.2022 21:00 13,8 C 12,2 C 8,9 C 64 % 1021,7 hPa 0,0 l/m 0 min 0 min 5 W/m 3,2 km/h (1 Bft) 93,62 %
01.05.2022 21:02 13,7 C 12,2 C 8,9 C 64 % 1021,7 hPa 0,0 l/m 0 min 0 min 0 W/m 3,2 km/h (1 Bft) 95,74 %
01.05.2022 21:04 13,7 C 12,2 C 8,9 C 64 % 1021,7 hPa 0,0 l/m 0 min 0 min 0 W/m 6,4 km/h (2 Bft) 93,48 %
01.05.2022 21:06 13,6 C 12,2 C 8,9 C 65 % 1021,7 hPa 0,0 l/m 0 min 0 min 0 W/m 3,2 km/h (1 Bft) 95,74 %
01.05.2022 21:08 13,6 C 12,2 C 8,9 C 65 % 1021,7 hPa 0,0 l/m 0 min 0 min 0 W/m 3,2 km/h (1 Bft) 95,74 %
01.05.2022 21:10 13,5 C 12,2 C 8,3 C 66 % 1021,8 hPa 0,0 l/m 0 min 0 min 0 W/m 6,4 km/h (2 Bft) 95,74 %
01.05.2022 21:12 13,4 C 12,2 C 8,3 C 66 % 1021,8 hPa 0,0 l/m 0 min 0 min 0 W/m 3,2 km/h (1 Bft) 95,74 %
01.05.2022 21:14 13,4 C 12,2 C 8,3 C 66 % 1021,8 hPa 0,0 l/m 0 min 0 min 0 W/m 3,2 km/h (1 Bft) 95,74 %
01.05.2022 21:16 13,4 C 11,7 C 8,3 C 66 % 1021,8 hPa 0,0 l/m 0 min 0 min 0 W/m 0,0 km/h (0 Bft) 95,65 %
01.05.2022 21:18 13,3 C 11,7 C 8,3 C 67 % 1021,9 hPa 0,0 l/m 0 min 0 min 0 W/m 3,2 km/h (1 Bft) 93,62 %
01.05.2022 21:20 13,3 C 11,7 C 8,3 C 67 % 1021,9 hPa 0,0 l/m 0 min 0 min 0 W/m 3,2 km/h (1 Bft) 97,87 %
01.05.2022 21:22 13,2 C 11,7 C 8,3 C 68 % 1022,0 hPa 0,0 l/m 0 min 0 min 0 W/m 0,0 km/h (0 Bft) 97,87 %
01.05.2022 21:24 13,2 C 11,7 C 8,3 C 68 % 1021,9 hPa 0,0 l/m 0 min 0 min 0 W/m 3,2 km/h (1 Bft) 95,74 %
01.05.2022 21:26 13,1 C 11,7 C 7,8 C 68 % 1022,0 hPa 0,0 l/m 0 min 0 min 0 W/m 3,2 km/h (1 Bft) 97,87 %
01.05.2022 21:28 13,0 C 11,7 C 7,8 C 69 % 1022,0 hPa 0,0 l/m 0 min 0 min 0 W/m 3,2 km/h (1 Bft) 97,83 %
01.05.2022 21:30 12,9 C 11,7 C 7,8 C 69 % 1022,0 hPa 0,0 l/m 0 min 0 min 0 W/m 3,2 km/h (1 Bft) 95,74 %
01.05.2022 21:32 12,8 C 11,1 C 7,8 C 69 % 1022,0 hPa 0,0 l/m 0 min 0 min 0 W/m 3,2 km/h (1 Bft) 93,62 %
01.05.2022 21:34 12,8 C 11,1 C 7,8 C 70 % 1022,0 hPa 0,0 l/m 0 min 0 min 0 W/m 3,2 km/h (1 Bft) 97,87 %
01.05.2022 21:36 12,7 C 11,1 C 7,8 C 70 % 1022,0 hPa 0,0 l/m 0 min 0 min 0 W/m 3,2 km/h (1 Bft) 100,00 %
01.05.2022 21:38 12,7 C 11,1 C 7,8 C 71 % 1022,0 hPa 0,0 l/m 0 min 0 min 0 W/m 0,0 km/h (0 Bft) 97,87 %
01.05.2022 21:40 12,6 C 11,1 C 7,8 C 71 % 1022,0 hPa 0,0 l/m 0 min 0 min 0 W/m 3,2 km/h (1 Bft) 100,00 %
01.05.2022 21:42 12,6 C 11,1 C 7,8 C 71 % 1022,0 hPa 0,0 l/m 0 min 0 min 0 W/m 3,2 km/h (1 Bft) 97,87 %
01.05.2022 21:44 12,5 C 11,1 C 7,8 C 71 % 1022,0 hPa 0,0 l/m 0 min 0 min 0 W/m 3,2 km/h (1 Bft) 100,00 %
01.05.2022 21:46 12,5 C 11,1 C 7,2 C 71 % 1022,0 hPa 0,0 l/m 0 min 0 min 0 W/m 3,2 km/h (1 Bft) 97,87 %
01.05.2022 21:48 12,4 C 11,1 C 7,2 C 72 % 1022,0 hPa 0,0 l/m 0 min 0 min 0 W/m 0,0 km/h (0 Bft) 100,00 %
01.05.2022 21:50 12,4 C 10,6 C 7,2 C 71 % 1022,0 hPa 0,0 l/m 0 min 0 min 0 W/m 3,2 km/h (1 Bft) 100,00 %
01.05.2022 21:52 12,3 C 10,6 C 7,2 C 72 % 1022,0 hPa 0,0 l/m 0 min 0 min 0 W/m 0,0 km/h (0 Bft) 97,83 %
01.05.2022 21:54 12,3 C 10,6 C 7,2 C 72 % 1022,1 hPa 0,0 l/m 0 min 0 min 0 W/m 3,2 km/h (1 Bft) 100,00 %
01.05.2022 21:56 12,2 C 10,6 C 7,2 C 72 % 1022,1 hPa 0,0 l/m 0 min 0 min 0 W/m 0,0 km/h (0 Bft) 97,87 %
01.05.2022 21:58 12,2 C 10,6 C 7,2 C 72 % 1022,1 hPa 0,0 l/m 0 min 0 min 0 W/m 0,0 km/h (0 Bft) 97,87 %
01.05.2022 22:00 12,2 C 10,6 C 7,2 C 72 % 1022,1 hPa 0,0 l/m 0 min 0 min 0 W/m 3,2 km/h (1 Bft) 100,00 %
01.05.2022 22:02 12,2 C 10,6 C 7,2 C 73 % 1022,1 hPa 0,0 l/m 0 min 0 min 0 W/m 0,0 km/h (0 Bft) 100,00 %
01.05.2022 22:04 12,1 C 10,6 C 7,2 C 73 % 1022,1 hPa 0,0 l/m 0 min 0 min 0 W/m 0,0 km/h (0 Bft) 97,83 %
01.05.2022 22:06 12,1 C 10,6 C 7,2 C 73 % 1022,1 hPa 0,0 l/m 0 min 0 min 0 W/m 0,0 km/h (0 Bft) 100,00 %
01.05.2022 22:08 12,1 C 10,6 C 7,2 C 73 % 1022,1 hPa 0,0 l/m 0 min 0 min 0 W/m 3,2 km/h (1 Bft) 100,00 %
01.05.2022 22:10 11,9 C 10,6 C 7,2 C 73 % 1022,1 hPa 0,0 l/m 0 min 0 min 0 W/m 3,2 km/h (1 Bft) 100,00 %
01.05.2022 22:12 11,9 C 10,6 C 7,2 C 73 % 1022,1 hPa 0,0 l/m 0 min 0 min 0 W/m 0,0 km/h (0 Bft) 100,00 %
01.05.2022 22:14 11,9 C 10,6 C 7,2 C 73 % 1022,1 hPa 0,0 l/m 0 min 0 min 0 W/m 0,0 km/h (0 Bft) 97,87 %
01.05.2022 22:16 11,8 C 10,6 C 7,2 C 73 % 1022,1 hPa 0,0 l/m 0 min 0 min 0 W/m 3,2 km/h (1 Bft) 100,00 %
01.05.2022 22:18 11,8 C 10,6 C 7,2 C 73 % 1022,1 hPa 0,0 l/m 0 min 0 min 0 W/m 0,0 km/h (0 Bft) 100,00 %
01.05.2022 22:20 11,8 C 10,6 C 7,2 C 73 % 1022,1 hPa 0,0 l/m 0 min 0 min 0 W/m 0,0 km/h (0 Bft) 97,87 %
01.05.2022 22:22 11,7 C 10,6 C 7,2 C 73 % 1022,2 hPa 0,0 l/m 0 min 0 min 0 W/m 0,0 km/h (0 Bft) 100,00 %
01.05.2022 22:24 11,7 C 10,0 C 7,2 C 74 % 1022,1 hPa 0,0 l/m 0 min 0 min 0 W/m 0,0 km/h (0 Bft) 97,87 %
01.05.2022 22:26 11,7 C 10,0 C 7,2 C 74 % 1022,1 hPa 0,0 l/m 0 min 0 min 0 W/m 0,0 km/h (0 Bft) 100,00 %
01.05.2022 22:28 11,7 C 10,0 C 6,7 C 74 % 1022,0 hPa 0,0 l/m 0 min 0 min 0 W/m 3,2 km/h (1 Bft) 100,00 %
01.05.2022 22:30 11,6 C 10,0 C 6,7 C 74 % 1022,1 hPa 0,0 l/m 0 min 0 min 0 W/m 3,2 km/h (1 Bft) 97,87 %
01.05.2022 22:32 11,6 C 10,0 C 6,7 C 74 % 1022,1 hPa 0,0 l/m 0 min 0 min 0 W/m 3,2 km/h (1 Bft) 95,74 %
01.05.2022 22:34 11,6 C 10,0 C 7,2 C 74 % 1022,1 hPa 0,0 l/m 0 min 0 min 0 W/m 0,0 km/h (0 Bft) 95,74 %
01.05.2022 22:36 11,5 C 10,0 C 6,7 C 74 % 1022,1 hPa 0,0 l/m 0 min 0 min 0 W/m 3,2 km/h (1 Bft) 93,62 %
01.05.2022 22:38 11,5 C 10,6 C 7,2 C 74 % 1022,1 hPa 0,0 l/m 0 min 0 min 0 W/m 3,2 km/h (1 Bft) 95,74 %
01.05.2022 22:40 11,4 C 10,6 C 7,2 C 74 % 1022,1 hPa 0,0 l/m 0 min 0 min 0 W/m 3,2 km/h (1 Bft) 95,65 %
01.05.2022 22:42 11,4 C 10,6 C 7,2 C 74 % 1022,1 hPa 0,0 l/m 0 min 0 min 0 W/m 0,0 km/h (0 Bft) 95,74 %
01.05.2022 22:44 11,4 C 10,6 C 7,2 C 75 % 1022,1 hPa 0,0 l/m 0 min 0 min 0 W/m 3,2 km/h (1 Bft) 95,74 %
01.05.2022 22:46 11,4 C 10,6 C 7,2 C 75 % 1022,1 hPa 0,0 l/m 0 min 0 min 0 W/m 0,0 km/h (0 Bft) 94,00 %
01.05.2022 22:48 11,4 C 10,6 C 7,2 C 75 % 1022,1 hPa 0,0 l/m 0 min 0 min 0 W/m 0,0 km/h (0 Bft) 93,62 %
01.05.2022 22:50 11,3 C 10,6 C 7,2 C 75 % 1022,1 hPa 0,0 l/m 0 min 0 min 0 W/m 3,2 km/h (1 Bft) 95,65 %
01.05.2022 22:52 11,3 C 10,6 C 7,2 C 75 % 1022,0 hPa 0,0 l/m 0 min 0 min 0 W/m 0,0 km/h (0 Bft) 95,74 %
01.05.2022 22:54 11,3 C 10,6 C 7,2 C 75 % 1022,0 hPa 0,0 l/m 0 min 0 min 0 W/m 0,0 km/h (0 Bft) 95,74 %
01.05.2022 22:56 11,3 C 10,6 C 7,2 C 75 % 1022,0 hPa 0,0 l/m 0 min 0 min 0 W/m 0,0 km/h (0 Bft) 93,62 %
01.05.2022 22:58 11,3 C 10,6 C 7,2 C 76 % 1022,0 hPa 0,0 l/m 0 min 0 min 0 W/m 0,0 km/h (0 Bft) 97,87 %
01.05.2022 23:00 11,3 C 10,6 C 7,2 C 76 % 1022,0 hPa 0,0 l/m 0 min 0 min 0 W/m 3,2 km/h (1 Bft) 97,87 %
01.05.2022 23:02 11,3 C 10,6 C 7,2 C 76 % 1022,0 hPa 0,0 l/m 0 min 0 min 0 W/m 0,0 km/h (0 Bft) 97,83 %
01.05.2022 23:04 11,3 C 10,0 C 7,2 C 76 % 1022,0 hPa 0,0 l/m 0 min 0 min 0 W/m 3,2 km/h (1 Bft) 93,62 %
01.05.2022 23:06 11,2 C 10,0 C 6,7 C 76 % 1021,9 hPa 0,0 l/m 0 min 0 min 0 W/m 0,0 km/h (0 Bft) 93,62 %
01.05.2022 23:08 11,2 C 10,0 C 6,7 C 76 % 1021,9 hPa 0,0 l/m 0 min 0 min 0 W/m 0,0 km/h (0 Bft) 100,00 %
01.05.2022 23:10 11,2 C 10,0 C 6,7 C 76 % 1021,9 hPa 0,0 l/m 0 min 0 min 0 W/m 0,0 km/h (0 Bft) 100,00 %
01.05.2022 23:12 11,2 C 10,0 C 6,7 C 76 % 1021,9 hPa 0,0 l/m 0 min 0 min 0 W/m 0,0 km/h (0 Bft) 97,87 %
01.05.2022 23:14 11,2 C 10,0 C 6,7 C 77 % 1021,9 hPa 0,0 l/m 0 min 0 min 0 W/m 3,2 km/h (1 Bft) 100,00 %
01.05.2022 23:16 11,2 C 10,0 C 6,7 C 76 % 1021,9 hPa 0,0 l/m 0 min 0 min 0 W/m 6,4 km/h (2 Bft) 100,00 %
01.05.2022 23:18 11,2 C 10,0 C 6,7 C 76 % 1021,9 hPa 0,0 l/m 0 min 0 min 0 W/m 0,0 km/h (0 Bft) 100,00 %
01.05.2022 23:20 11,2 C 10,0 C 6,7 C 76 % 1021,9 hPa 0,0 l/m 0 min 0 min 0 W/m 3,2 km/h (1 Bft) 100,00 %
01.05.2022 23:22 11,1 C 10,0 C 6,7 C 76 % 1021,9 hPa 0,0 l/m 0 min 0 min 0 W/m 3,2 km/h (1 Bft) 100,00 %
01.05.2022 23:24 11,1 C 10,0 C 6,7 C 76 % 1021,9 hPa 0,0 l/m 0 min 0 min 0 W/m 0,0 km/h (0 Bft) 100,00 %
01.05.2022 23:26 11,1 C 10,0 C 6,7 C 76 % 1021,9 hPa 0,0 l/m 0 min 0 min 0 W/m 0,0 km/h (0 Bft) 100,00 %
01.05.2022 23:28 11,1 C 10,0 C 6,7 C 76 % 1021,9 hPa 0,0 l/m 0 min 0 min 0 W/m 3,2 km/h (1 Bft) 100,00 %
01.05.2022 23:30 11,1 C 10,0 C 6,7 C 77 % 1021,8 hPa 0,0 l/m 0 min 0 min 0 W/m 0,0 km/h (0 Bft) 100,00 %
01.05.2022 23:32 11,1 C 10,0 C 6,7 C 77 % 1021,8 hPa 0,0 l/m 0 min 0 min 0 W/m 0,0 km/h (0 Bft) 97,87 %
01.05.2022 23:34 11,0 C 10,0 C 6,7 C 77 % 1021,8 hPa 0,0 l/m 0 min 0 min 0 W/m 0,0 km/h (0 Bft) 100,00 %
01.05.2022 23:36 11,0 C 10,0 C 6,7 C 77 % 1021,8 hPa 0,0 l/m 0 min 0 min 0 W/m 0,0 km/h (0 Bft) 100,00 %
01.05.2022 23:38 11,0 C 10,0 C 6,7 C 77 % 1021,8 hPa 0,0 l/m 0 min 0 min 0 W/m 0,0 km/h (0 Bft) 100,00 %
01.05.2022 23:40 10,9 C 10,0 C 6,7 C 77 % 1021,8 hPa 0,0 l/m 0 min 0 min 0 W/m 0,0 km/h (0 Bft) 100,00 %
01.05.2022 23:42 10,9 C 10,0 C 6,7 C 77 % 1021,8 hPa 0,0 l/m 0 min 0 min 0 W/m 0,0 km/h (0 Bft) 100,00 %
01.05.2022 23:44 10,9 C 10,0 C 6,7 C 77 % 1021,8 hPa 0,0 l/m 0 min 0 min 0 W/m 0,0 km/h (0 Bft) 100,00 %
01.05.2022 23:46 10,9 C 10,0 C 6,7 C 77 % 1021,8 hPa 0,0 l/m 0 min 0 min 0 W/m 0,0 km/h (0 Bft) 100,00 %
01.05.2022 23:48 10,9 C 10,0 C 6,7 C 77 % 1021,8 hPa 0,0 l/m 0 min 0 min 0 W/m 0,0 km/h (0 Bft) 100,00 %
01.05.2022 23:50 10,9 C 10,0 C 6,7 C 78 % 1021,8 hPa 0,0 l/m 0 min 0 min 0 W/m 0,0 km/h (0 Bft) 100,00 %
01.05.2022 23:52 10,9 C 10,0 C 6,7 C 78 % 1021,8 hPa 0,0 l/m 0 min 0 min 0 W/m 0,0 km/h (0 Bft) 100,00 %
01.05.2022 23:54 10,9 C 10,0 C 6,7 C 78 % 1021,8 hPa 0,0 l/m 0 min 0 min 0 W/m 0,0 km/h (0 Bft) 100,00 %
01.05.2022 23:56 10,8 C 10,0 C 6,7 C 78 % 1021,8 hPa 0,0 l/m 0 min 0 min 0 W/m 3,2 km/h (1 Bft) 95,74 %
01.05.2022 23:58 10,8 C 10,0 C 6,7 C 78 % 1021,8 hPa 0,0 l/m 0 min 0 min 0 W/m 0,0 km/h (0 Bft) 100,00 %
_ Min-Zeit 06:16 05:34 05:56 15:26 19:02 - - - - 01:12 09:38
Minimum _ 8,3 C 7,2 C 3,9 C 51 % 1021,3 hPa - - - - 0,0 km/h (0 Bft) 48,28 %
_ Max-Zeit 16:14 14:38 13:52 07:14 00:14 00:00 12:07 00:00 14:34 14:32 00:10
Maximum _ 17,1 C 21,1 C 12,8 C 89 % 1024,9 hPa 0,0 l/m 3 min 0 min 851 W/m 22,5 km/h
W-NW (4 Bft)
100,00 %
Durchschnitt _ 12,3 C 12,4 C 8,3 C 71 % 1023,4 hPa #0,0 l/m #6:14 h #0 min. 266 W/m 5,9 km/h (2 Bft) 97,46 %
© 2022 W. Hausmann